PWSweather.com
Personal Weather Stations
Station Observations
GRACELEHAN
The Grace C. Lehan Memorial Weather Station, West Hartford, CT 06107

The Grace C. Lehan Memorial Weather StationWest Hartford, CT 06107

Lat: 41.745629, Lon: -72.7443516

Elevation: 136

Station Type: Davis Vantage Pro2 Plus

High Low Average
Temperature 59.3°F15.2°C 30.9°F-0.6°C 44.2°F6.8°C
Dew Point 52.1°F11.2°C 10.1°F-12.2°C 25.3°F-3.7°C
Winds 30.0 mph 48.3 kmh Calm Calm 8.0 mph W12.9 kmh W
Wind Gusts 30.0 mph48.3 kmh -- 11.0 mph17.7 kmh
Humidity 89% 36% 48%
Pressure 30.05 in1017.6 mb 29.30 in992.2 mb -
Precipitation 0.00 in0.0 mm - -
Hour Temp Dew Point Humidity Winds Wind Gusts Pressure Precip Precip Rate Daily Precip Total
12:00 AM 56.1°F13.4°C 53.5°F11.9°C 91% Calm Calm 1.0 mph1.6 kmh 29.34 in993.6 mb 0.00 in0.0 mm 0.00 in0.0 mm 0.00 in0.0 mm
12:02 AM 56.1°F13.4°C 53.5°F11.9°C 91% Calm Calm -- 29.34 in993.6 mb 0.00 in0.0 mm 0.00 in0.0 mm 0.00 in0.0 mm
12:04 AM 56.0°F13.3°C 53.4°F11.9°C 91% Calm Calm 1.0 mph1.6 kmh 29.34 in993.6 mb 0.00 in0.0 mm 0.00 in0.0 mm 0.00 in0.0 mm
12:06 AM 56.0°F13.3°C 53.4°F11.9°C 91% 1.0 mph SSW1.6 kmh SSW 1.0 mph1.6 kmh 29.34 in993.6 mb 0.00 in0.0 mm 0.00 in0.0 mm 0.00 in0.0 mm
12:08 AM 56.0°F13.3°C 53.4°F11.9°C 91% Calm Calm 2.0 mph3.2 kmh 29.34 in993.6 mb 0.00 in0.0 mm 0.00 in0.0 mm 0.00 in0.0 mm
12:10 AM 55.9°F13.3°C 53.3°F11.8°C 91% Calm Calm 1.0 mph1.6 kmh 29.34 in993.6 mb 0.00 in0.0 mm 0.00 in0.0 mm 0.00 in0.0 mm
12:12 AM 55.9°F13.3°C 53.3°F11.8°C 91% Calm Calm 3.0 mph4.8 kmh 29.34 in993.6 mb 0.00 in0.0 mm 0.00 in0.0 mm 0.00 in0.0 mm
12:14 AM 55.9°F13.3°C 53.3°F11.8°C 91% 2.0 mph SSW3.2 kmh SSW 2.0 mph3.2 kmh 29.33 in993.2 mb 0.00 in0.0 mm 0.00 in0.0 mm 0.00 in0.0 mm
12:16 AM 55.9°F13.3°C 53.3°F11.8°C 91% 1.0 mph SSW1.6 kmh SSW 4.0 mph6.4 kmh 29.34 in993.6 mb 0.00 in0.0 mm 0.00 in0.0 mm 0.00 in0.0 mm
12:18 AM 55.8°F13.2°C 53.2°F11.8°C 91% Calm Calm 1.0 mph1.6 kmh 29.34 in993.6 mb 0.00 in0.0 mm 0.00 in0.0 mm 0.00 in0.0 mm
12:20 AM 55.8°F13.2°C 53.2°F11.8°C 91% Calm Calm -- 29.34 in993.6 mb 0.00 in0.0 mm 0.00 in0.0 mm 0.00 in0.0 mm
12:22 AM 55.8°F13.2°C 53.2°F11.8°C 91% Calm Calm 1.0 mph1.6 kmh 29.34 in993.6 mb 0.00 in0.0 mm 0.00 in0.0 mm 0.00 in0.0 mm
12:24 AM 55.8°F13.2°C 53.2°F11.8°C 91% Calm Calm 2.0 mph3.2 kmh 29.34 in993.6 mb 0.00 in0.0 mm 0.00 in0.0 mm 0.00 in0.0 mm
12:26 AM 55.7°F13.2°C 52.8°F11.6°C 90% Calm Calm -- 29.34 in993.6 mb 0.00 in0.0 mm 0.00 in0.0 mm 0.00 in0.0 mm
12:28 AM 55.7°F13.2°C 52.8°F11.6°C 90% Calm Calm -- 29.34 in993.6 mb 0.00 in0.0 mm 0.00 in0.0 mm 0.00 in0.0 mm
12:30 AM 55.6°F13.1°C 52.7°F11.5°C 90% Calm Calm -- 29.34 in993.6 mb 0.00 in0.0 mm 0.00 in0.0 mm 0.00 in0.0 mm
12:32 AM 55.5°F13.1°C 52.9°F11.6°C 91% 3.0 mph SSW4.8 kmh SSW 3.0 mph4.8 kmh 29.34 in993.6 mb 0.00 in0.0 mm 0.00 in0.0 mm 0.00 in0.0 mm
12:34 AM 55.4°F13.0°C 52.8°F11.6°C 91% Calm Calm 1.0 mph1.6 kmh 29.34 in993.6 mb 0.00 in0.0 mm 0.00 in0.0 mm 0.00 in0.0 mm
12:36 AM 55.4°F13.0°C 52.5°F11.4°C 90% Calm Calm -- 29.34 in993.6 mb 0.00 in0.0 mm 0.00 in0.0 mm 0.00 in0.0 mm
12:38 AM 55.4°F13.0°C 52.5°F11.4°C 90% 2.0 mph SSW3.2 kmh SSW 2.0 mph3.2 kmh 29.34 in993.6 mb 0.00 in0.0 mm 0.00 in0.0 mm 0.00 in0.0 mm
12:40 AM 55.3°F12.9°C 52.4°F11.3°C 90% Calm Calm -- 29.34 in993.6 mb 0.00 in0.0 mm 0.00 in0.0 mm 0.00 in0.0 mm
12:42 AM 55.3°F12.9°C 52.4°F11.3°C 90% 1.0 mph SSW1.6 kmh SSW 2.0 mph3.2 kmh 29.34 in993.6 mb 0.00 in0.0 mm 0.00 in0.0 mm 0.00 in0.0 mm
12:44 AM 55.3°F12.9°C 52.4°F11.3°C 90% Calm Calm 1.0 mph1.6 kmh 29.34 in993.6 mb 0.00 in0.0 mm 0.00 in0.0 mm 0.00 in0.0 mm
12:46 AM 55.3°F12.9°C 52.4°F11.3°C 90% 2.0 mph SSW3.2 kmh SSW 2.0 mph3.2 kmh 29.33 in993.2 mb 0.00 in0.0 mm 0.00 in0.0 mm 0.00 in0.0 mm
12:48 AM 55.3°F12.9°C 52.4°F11.3°C 90% 3.0 mph SSW4.8 kmh SSW 3.0 mph4.8 kmh 29.33 in993.2 mb 0.00 in0.0 mm 0.00 in0.0 mm 0.00 in0.0 mm
12:50 AM 55.3°F12.9°C 52.4°F11.3°C 90% 3.0 mph SSW4.8 kmh SSW 3.0 mph4.8 kmh 29.33 in993.2 mb 0.00 in0.0 mm 0.00 in0.0 mm 0.00 in0.0 mm
12:52 AM 55.3°F12.9°C 52.4°F11.3°C 90% 1.0 mph SSW1.6 kmh SSW 4.0 mph6.4 kmh 29.33 in993.2 mb 0.00 in0.0 mm 0.00 in0.0 mm 0.00 in0.0 mm
12:54 AM 55.3°F12.9°C 52.4°F11.3°C 90% 3.0 mph SSW4.8 kmh SSW 3.0 mph4.8 kmh 29.33 in993.2 mb 0.00 in0.0 mm 0.00 in0.0 mm 0.00 in0.0 mm
12:56 AM 55.3°F12.9°C 52.4°F11.3°C 90% 2.0 mph SSW3.2 kmh SSW 2.0 mph3.2 kmh 29.33 in993.2 mb 0.00 in0.0 mm 0.00 in0.0 mm 0.00 in0.0 mm
12:58 AM 55.3°F12.9°C 52.1°F11.2°C 89% 1.0 mph SSW1.6 kmh SSW 1.0 mph1.6 kmh 29.33 in993.2 mb 0.00 in0.0 mm 0.00 in0.0 mm 0.00 in0.0 mm
01:00 AM 55.3°F12.9°C 52.1°F11.2°C 89% Calm Calm 1.0 mph1.6 kmh 29.33 in993.2 mb 0.00 in0.0 mm 0.00 in0.0 mm 0.00 in0.0 mm
01:02 AM 55.2°F12.9°C 52.0°F11.1°C 89% 3.0 mph SSW4.8 kmh SSW 3.0 mph4.8 kmh 29.33 in993.2 mb 0.00 in0.0 mm 0.00 in0.0 mm 0.00 in0.0 mm
01:04 AM 55.2°F12.9°C 52.0°F11.1°C 89% 2.0 mph SSW3.2 kmh SSW 3.0 mph4.8 kmh 29.33 in993.2 mb 0.00 in0.0 mm 0.00 in0.0 mm 0.00 in0.0 mm
01:06 AM 55.2°F12.9°C 52.0°F11.1°C 89% 1.0 mph SSW1.6 kmh SSW 1.0 mph1.6 kmh 29.33 in993.2 mb 0.00 in0.0 mm 0.00 in0.0 mm 0.00 in0.0 mm
01:08 AM 55.2°F12.9°C 52.0°F11.1°C 89% 1.0 mph SSW1.6 kmh SSW 2.0 mph3.2 kmh 29.33 in993.2 mb 0.00 in0.0 mm 0.00 in0.0 mm 0.00 in0.0 mm
01:10 AM 55.2°F12.9°C 52.0°F11.1°C 89% 4.0 mph SSW6.4 kmh SSW 4.0 mph6.4 kmh 29.33 in993.2 mb 0.00 in0.0 mm 0.00 in0.0 mm 0.00 in0.0 mm
01:12 AM 55.2°F12.9°C 52.0°F11.1°C 89% 2.0 mph SSW3.2 kmh SSW 3.0 mph4.8 kmh 29.33 in993.2 mb 0.00 in0.0 mm 0.00 in0.0 mm 0.00 in0.0 mm
01:14 AM 55.2°F12.9°C 52.0°F11.1°C 89% Calm Calm 2.0 mph3.2 kmh 29.33 in993.2 mb 0.00 in0.0 mm 0.00 in0.0 mm 0.00 in0.0 mm
01:16 AM 55.1°F12.8°C 51.9°F11.1°C 89% Calm Calm -- 29.33 in993.2 mb 0.00 in0.0 mm 0.00 in0.0 mm 0.00 in0.0 mm
01:18 AM 55.1°F12.8°C 51.9°F11.1°C 89% Calm Calm -- 29.33 in993.2 mb 0.00 in0.0 mm 0.00 in0.0 mm 0.00 in0.0 mm
01:20 AM 55.1°F12.8°C 51.9°F11.1°C 89% 1.0 mph SSW1.6 kmh SSW 1.0 mph1.6 kmh 29.33 in993.2 mb 0.00 in0.0 mm 0.00 in0.0 mm 0.00 in0.0 mm
01:22 AM 55.1°F12.8°C 51.9°F11.1°C 89% Calm Calm -- 29.32 in992.9 mb 0.00 in0.0 mm 0.00 in0.0 mm 0.00 in0.0 mm
01:24 AM 55.0°F12.8°C 51.8°F11.0°C 89% 1.0 mph SSW1.6 kmh SSW 1.0 mph1.6 kmh 29.32 in992.9 mb 0.00 in0.0 mm 0.00 in0.0 mm 0.00 in0.0 mm
01:26 AM 55.0°F12.8°C 51.8°F11.0°C 89% 2.0 mph SSW3.2 kmh SSW 3.0 mph4.8 kmh 29.32 in992.9 mb 0.00 in0.0 mm 0.00 in0.0 mm 0.00 in0.0 mm
01:28 AM 55.0°F12.8°C 51.8°F11.0°C 89% 2.0 mph SSW3.2 kmh SSW 3.0 mph4.8 kmh 29.32 in992.9 mb 0.00 in0.0 mm 0.00 in0.0 mm 0.00 in0.0 mm
01:30 AM 55.1°F12.8°C 51.9°F11.1°C 89% 2.0 mph SSW3.2 kmh SSW 3.0 mph4.8 kmh 29.32 in992.9 mb 0.00 in0.0 mm 0.00 in0.0 mm 0.00 in0.0 mm
01:32 AM 55.1°F12.8°C 51.9°F11.1°C 89% 2.0 mph SSW3.2 kmh SSW 2.0 mph3.2 kmh 29.31 in992.6 mb 0.00 in0.0 mm 0.00 in0.0 mm 0.00 in0.0 mm
01:34 AM 55.0°F12.8°C 51.5°F10.8°C 88% Calm Calm -- 29.31 in992.6 mb 0.00 in0.0 mm 0.00 in0.0 mm 0.00 in0.0 mm
01:36 AM 55.0°F12.8°C 51.5°F10.8°C 88% Calm Calm -- 29.31 in992.6 mb 0.00 in0.0 mm 0.00 in0.0 mm 0.00 in0.0 mm
01:38 AM 55.0°F12.8°C 51.5°F10.8°C 88% 1.0 mph SSW1.6 kmh SSW 1.0 mph1.6 kmh 29.31 in992.6 mb 0.00 in0.0 mm 0.00 in0.0 mm 0.00 in0.0 mm
01:40 AM 54.9°F12.7°C 51.4°F10.8°C 88% 2.0 mph SSW3.2 kmh SSW 3.0 mph4.8 kmh 29.31 in992.6 mb 0.00 in0.0 mm 0.00 in0.0 mm 0.00 in0.0 mm
01:42 AM 54.9°F12.7°C 51.4°F10.8°C 88% 2.0 mph SSW3.2 kmh SSW 2.0 mph3.2 kmh 29.31 in992.6 mb 0.00 in0.0 mm 0.00 in0.0 mm 0.00 in0.0 mm
01:44 AM 54.9°F12.7°C 51.4°F10.8°C 88% 2.0 mph SSW3.2 kmh SSW 2.0 mph3.2 kmh 29.31 in992.6 mb 0.00 in0.0 mm 0.00 in0.0 mm 0.00 in0.0 mm
01:46 AM 54.8°F12.7°C 51.3°F10.7°C 88% Calm Calm -- 29.31 in992.6 mb 0.00 in0.0 mm 0.00 in0.0 mm 0.00 in0.0 mm
01:48 AM 54.8°F12.7°C 51.3°F10.7°C 88% 2.0 mph SSW3.2 kmh SSW 2.0 mph3.2 kmh 29.32 in992.9 mb 0.00 in0.0 mm 0.00 in0.0 mm 0.00 in0.0 mm
01:50 AM 54.8°F12.7°C 51.3°F10.7°C 88% 2.0 mph SSW3.2 kmh SSW 2.0 mph3.2 kmh 29.31 in992.6 mb 0.00 in0.0 mm 0.00 in0.0 mm 0.00 in0.0 mm
01:52 AM 54.8°F12.7°C 51.3°F10.7°C 88% 2.0 mph SSW3.2 kmh SSW 2.0 mph3.2 kmh 29.32 in992.9 mb 0.00 in0.0 mm 0.00 in0.0 mm 0.00 in0.0 mm
01:54 AM 54.8°F12.7°C 51.3°F10.7°C 88% 3.0 mph SSW4.8 kmh SSW 3.0 mph4.8 kmh 29.32 in992.9 mb 0.00 in0.0 mm 0.00 in0.0 mm 0.00 in0.0 mm
01:56 AM 54.8°F12.7°C 51.3°F10.7°C 88% 2.0 mph SSW3.2 kmh SSW 2.0 mph3.2 kmh 29.32 in992.9 mb 0.00 in0.0 mm 0.00 in0.0 mm 0.00 in0.0 mm
01:58 AM 54.8°F12.7°C 51.3°F10.7°C 88% 1.0 mph SSW1.6 kmh SSW 1.0 mph1.6 kmh 29.32 in992.9 mb 0.00 in0.0 mm 0.00 in0.0 mm 0.00 in0.0 mm
02:00 AM 54.7°F12.6°C 51.2°F10.7°C 88% 2.0 mph SSW3.2 kmh SSW 4.0 mph6.4 kmh 29.32 in992.9 mb 0.00 in0.0 mm 0.00 in0.0 mm 0.00 in0.0 mm
02:02 AM 54.7°F12.6°C 51.2°F10.7°C 88% 2.0 mph SSW3.2 kmh SSW 2.0 mph3.2 kmh 29.32 in992.9 mb 0.00 in0.0 mm 0.00 in0.0 mm 0.00 in0.0 mm
02:04 AM 54.6°F12.6°C 51.1°F10.6°C 88% 4.0 mph SSW6.4 kmh SSW 4.0 mph6.4 kmh 29.32 in992.9 mb 0.00 in0.0 mm 0.00 in0.0 mm 0.00 in0.0 mm
02:06 AM 54.6°F12.6°C 51.1°F10.6°C 88% 3.0 mph SSW4.8 kmh SSW 3.0 mph4.8 kmh 29.32 in992.9 mb 0.00 in0.0 mm 0.00 in0.0 mm 0.00 in0.0 mm
02:08 AM 54.6°F12.6°C 51.1°F10.6°C 88% 3.0 mph SSW4.8 kmh SSW 3.0 mph4.8 kmh 29.32 in992.9 mb 0.00 in0.0 mm 0.00 in0.0 mm 0.00 in0.0 mm
02:10 AM 54.5°F12.5°C 51.0°F10.6°C 88% 3.0 mph SSW4.8 kmh SSW 3.0 mph4.8 kmh 29.32 in992.9 mb 0.00 in0.0 mm 0.00 in0.0 mm 0.00 in0.0 mm
02:12 AM 54.5°F12.5°C 51.0°F10.6°C 88% 3.0 mph SSW4.8 kmh SSW 3.0 mph4.8 kmh 29.32 in992.9 mb 0.00 in0.0 mm 0.00 in0.0 mm 0.00 in0.0 mm
02:14 AM 54.5°F12.5°C 51.0°F10.6°C 88% 2.0 mph SSW3.2 kmh SSW 3.0 mph4.8 kmh 29.32 in992.9 mb 0.00 in0.0 mm 0.00 in0.0 mm 0.00 in0.0 mm
02:16 AM 54.4°F12.4°C 50.9°F10.5°C 88% 5.0 mph SSW8.0 kmh SSW 5.0 mph8.0 kmh 29.32 in992.9 mb 0.00 in0.0 mm 0.00 in0.0 mm 0.00 in0.0 mm
02:18 AM 54.4°F12.4°C 50.9°F10.5°C 88% 1.0 mph SSW1.6 kmh SSW 2.0 mph3.2 kmh 29.32 in992.9 mb 0.00 in0.0 mm 0.00 in0.0 mm 0.00 in0.0 mm
02:20 AM 54.4°F12.4°C 50.9°F10.5°C 88% 3.0 mph SSW4.8 kmh SSW 3.0 mph4.8 kmh 29.32 in992.9 mb 0.00 in0.0 mm 0.00 in0.0 mm 0.00 in0.0 mm
02:22 AM 54.3°F12.4°C 50.8°F10.4°C 88% 2.0 mph SSW3.2 kmh SSW 3.0 mph4.8 kmh 29.32 in992.9 mb 0.00 in0.0 mm 0.00 in0.0 mm 0.00 in0.0 mm
02:24 AM 54.3°F12.4°C 50.8°F10.4°C 88% 4.0 mph SSW6.4 kmh SSW 5.0 mph8.0 kmh 29.32 in992.9 mb 0.00 in0.0 mm 0.00 in0.0 mm 0.00 in0.0 mm
02:26 AM 54.2°F12.3°C 50.7°F10.4°C 88% 4.0 mph SSW6.4 kmh SSW 5.0 mph8.0 kmh 29.32 in992.9 mb 0.00 in0.0 mm 0.00 in0.0 mm 0.00 in0.0 mm
02:28 AM 54.2°F12.3°C 50.7°F10.4°C 88% 2.0 mph SSW3.2 kmh SSW 2.0 mph3.2 kmh 29.32 in992.9 mb 0.00 in0.0 mm 0.00 in0.0 mm 0.00 in0.0 mm
02:30 AM 54.2°F12.3°C 50.7°F10.4°C 88% Calm Calm 2.0 mph3.2 kmh 29.32 in992.9 mb 0.00 in0.0 mm 0.00 in0.0 mm 0.00 in0.0 mm
02:32 AM 54.2°F12.3°C 50.7°F10.4°C 88% Calm Calm -- 29.32 in992.9 mb 0.00 in0.0 mm 0.00 in0.0 mm 0.00 in0.0 mm
02:34 AM 54.1°F12.3°C 50.6°F10.3°C 88% Calm Calm -- 29.32 in992.9 mb 0.00 in0.0 mm 0.00 in0.0 mm 0.00 in0.0 mm
02:36 AM 54.1°F12.3°C 50.6°F10.3°C 88% 1.0 mph SSW1.6 kmh SSW 1.0 mph1.6 kmh 29.32 in992.9 mb 0.00 in0.0 mm 0.00 in0.0 mm 0.00 in0.0 mm
02:38 AM 54.1°F12.3°C 50.6°F10.3°C 88% Calm Calm -- 29.32 in992.9 mb 0.00 in0.0 mm 0.00 in0.0 mm 0.00 in0.0 mm
02:40 AM 54.0°F12.2°C 50.5°F10.3°C 88% 1.0 mph SSW1.6 kmh SSW 2.0 mph3.2 kmh 29.32 in992.9 mb 0.00 in0.0 mm 0.00 in0.0 mm 0.00 in0.0 mm
02:42 AM 54.0°F12.2°C 50.8°F10.4°C 89% 1.0 mph SSW1.6 kmh SSW 1.0 mph1.6 kmh 29.32 in992.9 mb 0.00 in0.0 mm 0.00 in0.0 mm 0.00 in0.0 mm
02:44 AM 53.9°F12.2°C 50.7°F10.4°C 89% Calm Calm 1.0 mph1.6 kmh 29.31 in992.6 mb 0.00 in0.0 mm 0.00 in0.0 mm 0.00 in0.0 mm
02:46 AM 53.9°F12.2°C 50.7°F10.4°C 89% 4.0 mph SSW6.4 kmh SSW 4.0 mph6.4 kmh 29.31 in992.6 mb 0.00 in0.0 mm 0.00 in0.0 mm 0.00 in0.0 mm
02:48 AM 53.9°F12.2°C 50.7°F10.4°C 89% 3.0 mph SSW4.8 kmh SSW 4.0 mph6.4 kmh 29.31 in992.6 mb 0.00 in0.0 mm 0.00 in0.0 mm 0.00 in0.0 mm
02:50 AM 54.0°F12.2°C 50.8°F10.4°C 89% 5.0 mph SSW8.0 kmh SSW 5.0 mph8.0 kmh 29.31 in992.6 mb 0.00 in0.0 mm 0.00 in0.0 mm 0.00 in0.0 mm
02:52 AM 54.2°F12.3°C 51.0°F10.6°C 89% 5.0 mph SSW8.0 kmh SSW 7.0 mph11.3 kmh 29.31 in992.6 mb 0.00 in0.0 mm 0.00 in0.0 mm 0.00 in0.0 mm
02:54 AM 54.3°F12.4°C 51.1°F10.6°C 89% 4.0 mph SSW6.4 kmh SSW 6.0 mph9.7 kmh 29.32 in992.9 mb 0.00 in0.0 mm 0.00 in0.0 mm 0.00 in0.0 mm
02:56 AM 54.5°F12.5°C 51.3°F10.7°C 89% 3.0 mph SW4.8 kmh SW 3.0 mph4.8 kmh 29.31 in992.6 mb 0.00 in0.0 mm 0.00 in0.0 mm 0.00 in0.0 mm
02:58 AM 54.7°F12.6°C 51.5°F10.8°C 89% 7.0 mph WSW11.3 kmh WSW 7.0 mph11.3 kmh 29.31 in992.6 mb 0.00 in0.0 mm 0.00 in0.0 mm 0.00 in0.0 mm
03:00 AM 54.9°F12.7°C 51.4°F10.8°C 88% 3.0 mph SW4.8 kmh SW 3.0 mph4.8 kmh 29.32 in992.9 mb 0.00 in0.0 mm 0.00 in0.0 mm 0.00 in0.0 mm
03:02 AM 55.2°F12.9°C 51.4°F10.8°C 87% 6.0 mph SW9.7 kmh SW 13.0 mph20.9 kmh 29.32 in992.9 mb 0.00 in0.0 mm 0.00 in0.0 mm 0.00 in0.0 mm
03:04 AM 55.7°F13.2°C 51.6°F10.9°C 86% 1.0 mph SSW1.6 kmh SSW 3.0 mph4.8 kmh 29.31 in992.6 mb 0.00 in0.0 mm 0.00 in0.0 mm 0.00 in0.0 mm
03:06 AM 56.1°F13.4°C 51.3°F10.7°C 84% 6.0 mph SW9.7 kmh SW 6.0 mph9.7 kmh 29.32 in992.9 mb 0.00 in0.0 mm 0.00 in0.0 mm 0.00 in0.0 mm
03:08 AM 56.4°F13.6°C 51.6°F10.9°C 84% 7.0 mph SW11.3 kmh SW 7.0 mph11.3 kmh 29.32 in992.9 mb 0.00 in0.0 mm 0.00 in0.0 mm 0.00 in0.0 mm
03:10 AM 56.7°F13.7°C 51.3°F10.7°C 82% 6.0 mph WSW9.7 kmh WSW 6.0 mph9.7 kmh 29.31 in992.6 mb 0.00 in0.0 mm 0.00 in0.0 mm 0.00 in0.0 mm
03:12 AM 57.0°F13.9°C 50.6°F10.3°C 79% 4.0 mph SW6.4 kmh SW 10.0 mph16.1 kmh 29.31 in992.6 mb 0.00 in0.0 mm 0.00 in0.0 mm 0.00 in0.0 mm
03:14 AM 57.5°F14.2°C 50.4°F10.2°C 77% 7.0 mph SW11.3 kmh SW 7.0 mph11.3 kmh 29.31 in992.6 mb 0.00 in0.0 mm 0.00 in0.0 mm 0.00 in0.0 mm
03:16 AM 57.8°F14.3°C 49.2°F9.6°C 73% 3.0 mph WSW4.8 kmh WSW 17.0 mph27.4 kmh 29.31 in992.6 mb 0.00 in0.0 mm 0.00 in0.0 mm 0.00 in0.0 mm
03:18 AM 58.2°F14.6°C 48.9°F9.4°C 71% 4.0 mph WSW6.4 kmh WSW 5.0 mph8.0 kmh 29.31 in992.6 mb 0.00 in0.0 mm 0.00 in0.0 mm 0.00 in0.0 mm
03:20 AM 58.5°F14.7°C 48.4°F9.1°C 69% 5.0 mph SW8.0 kmh SW 5.0 mph8.0 kmh 29.31 in992.6 mb 0.00 in0.0 mm 0.00 in0.0 mm 0.00 in0.0 mm
03:22 AM 58.7°F14.8°C 48.2°F9.0°C 68% 6.0 mph SW9.7 kmh SW 13.0 mph20.9 kmh 29.31 in992.6 mb 0.00 in0.0 mm 0.00 in0.0 mm 0.00 in0.0 mm
03:24 AM 58.8°F14.9°C 47.9°F8.8°C 67% 7.0 mph WSW11.3 kmh WSW 7.0 mph11.3 kmh 29.31 in992.6 mb 0.00 in0.0 mm 0.00 in0.0 mm 0.00 in0.0 mm
03:26 AM 58.9°F14.9°C 47.6°F8.7°C 66% 10.0 mph SSW16.1 kmh SSW 10.0 mph16.1 kmh 29.30 in992.2 mb 0.00 in0.0 mm 0.00 in0.0 mm 0.00 in0.0 mm
03:28 AM 59.0°F15.0°C 47.3°F8.5°C 65% 5.0 mph WSW8.0 kmh WSW 10.0 mph16.1 kmh 29.31 in992.6 mb 0.00 in0.0 mm 0.00 in0.0 mm 0.00 in0.0 mm
03:30 AM 59.1°F15.1°C 47.4°F8.6°C 65% 6.0 mph SW9.7 kmh SW 6.0 mph9.7 kmh 29.31 in992.6 mb 0.00 in0.0 mm 0.00 in0.0 mm 0.00 in0.0 mm
03:32 AM 59.1°F15.1°C 47.0°F8.3°C 64% 6.0 mph SW9.7 kmh SW 14.0 mph22.5 kmh 29.31 in992.6 mb 0.00 in0.0 mm 0.00 in0.0 mm 0.00 in0.0 mm
03:34 AM 59.1°F15.1°C 47.0°F8.3°C 64% 4.0 mph WSW6.4 kmh WSW 8.0 mph12.9 kmh 29.31 in992.6 mb 0.00 in0.0 mm 0.00 in0.0 mm 0.00 in0.0 mm
03:36 AM 59.1°F15.1°C 46.5°F8.1°C 63% 15.0 mph SW24.1 kmh SW 18.0 mph29.0 kmh 29.31 in992.6 mb 0.00 in0.0 mm 0.00 in0.0 mm 0.00 in0.0 mm
03:38 AM 59.2°F15.1°C 45.8°F7.7°C 61% 3.0 mph W4.8 kmh W 16.0 mph25.7 kmh 29.31 in992.6 mb 0.00 in0.0 mm 0.00 in0.0 mm 0.00 in0.0 mm
03:40 AM 59.2°F15.1°C 45.8°F7.7°C 61% 13.0 mph WSW20.9 kmh WSW 13.0 mph20.9 kmh 29.31 in992.6 mb 0.00 in0.0 mm 0.00 in0.0 mm 0.00 in0.0 mm
03:42 AM 59.2°F15.1°C 45.8°F7.7°C 61% 7.0 mph WSW11.3 kmh WSW 7.0 mph11.3 kmh 29.31 in992.6 mb 0.00 in0.0 mm 0.00 in0.0 mm 0.00 in0.0 mm
03:44 AM 59.3°F15.2°C 45.9°F7.7°C 61% 9.0 mph SSW14.5 kmh SSW 9.0 mph14.5 kmh 29.31 in992.6 mb 0.00 in0.0 mm 0.00 in0.0 mm 0.00 in0.0 mm
03:46 AM 59.2°F15.1°C 46.2°F7.9°C 62% 4.0 mph WSW6.4 kmh WSW 5.0 mph8.0 kmh 29.31 in992.6 mb 0.00 in0.0 mm 0.00 in0.0 mm 0.00 in0.0 mm
03:48 AM 59.2°F15.1°C 46.2°F7.9°C 62% 3.0 mph WSW4.8 kmh WSW 3.0 mph4.8 kmh 29.31 in992.6 mb 0.00 in0.0 mm 0.00 in0.0 mm 0.00 in0.0 mm
03:50 AM 59.1°F15.1°C 46.1°F7.8°C 62% 10.0 mph SW16.1 kmh SW 16.0 mph25.7 kmh 29.31 in992.6 mb 0.00 in0.0 mm 0.00 in0.0 mm 0.00 in0.0 mm
03:52 AM 59.1°F15.1°C 46.1°F7.8°C 62% 8.0 mph SW12.9 kmh SW 18.0 mph29.0 kmh 29.31 in992.6 mb 0.00 in0.0 mm 0.00 in0.0 mm 0.00 in0.0 mm
03:54 AM 59.1°F15.1°C 45.7°F7.6°C 61% 4.0 mph WNW6.4 kmh WNW 11.0 mph17.7 kmh 29.31 in992.6 mb 0.00 in0.0 mm 0.00 in0.0 mm 0.00 in0.0 mm
03:56 AM 59.1°F15.1°C 46.1°F7.8°C 62% 3.0 mph WNW4.8 kmh WNW 5.0 mph8.0 kmh 29.31 in992.6 mb 0.00 in0.0 mm 0.00 in0.0 mm 0.00 in0.0 mm
03:58 AM 59.1°F15.1°C 46.1°F7.8°C 62% 11.0 mph W17.7 kmh W 19.0 mph30.6 kmh 29.31 in992.6 mb 0.00 in0.0 mm 0.00 in0.0 mm 0.00 in0.0 mm
04:00 AM 59.0°F15.0°C 46.0°F7.8°C 62% 7.0 mph NW11.3 kmh NW 15.0 mph24.1 kmh 29.31 in992.6 mb 0.00 in0.0 mm 0.00 in0.0 mm 0.00 in0.0 mm
04:02 AM 59.0°F15.0°C 46.4°F8.0°C 63% 4.0 mph SW6.4 kmh SW 7.0 mph11.3 kmh 29.31 in992.6 mb 0.00 in0.0 mm 0.00 in0.0 mm 0.00 in0.0 mm
04:04 AM 59.0°F15.0°C 46.4°F8.0°C 63% 8.0 mph SW12.9 kmh SW 14.0 mph22.5 kmh 29.31 in992.6 mb 0.00 in0.0 mm 0.00 in0.0 mm 0.00 in0.0 mm
04:06 AM 58.9°F14.9°C 46.3°F7.9°C 63% 4.0 mph SW6.4 kmh SW 6.0 mph9.7 kmh 29.31 in992.6 mb 0.00 in0.0 mm 0.00 in0.0 mm 0.00 in0.0 mm
04:08 AM 58.8°F14.9°C 46.3°F7.9°C 63% 7.0 mph WSW11.3 kmh WSW 19.0 mph30.6 kmh 29.31 in992.6 mb 0.00 in0.0 mm 0.00 in0.0 mm 0.00 in0.0 mm
04:10 AM 58.8°F14.9°C 46.3°F7.9°C 63% 3.0 mph W4.8 kmh W 5.0 mph8.0 kmh 29.31 in992.6 mb 0.00 in0.0 mm 0.00 in0.0 mm 0.00 in0.0 mm
04:12 AM 58.7°F14.8°C 46.2°F7.9°C 63% 6.0 mph SW9.7 kmh SW 9.0 mph14.5 kmh 29.31 in992.6 mb 0.00 in0.0 mm 0.00 in0.0 mm 0.00 in0.0 mm
04:14 AM 58.5°F14.7°C 46.0°F7.8°C 63% 6.0 mph W9.7 kmh W 9.0 mph14.5 kmh 29.31 in992.6 mb 0.00 in0.0 mm 0.00 in0.0 mm 0.00 in0.0 mm
04:16 AM 58.4°F14.7°C 45.5°F7.5°C 62% 7.0 mph W11.3 kmh W 7.0 mph11.3 kmh 29.31 in992.6 mb 0.00 in0.0 mm 0.00 in0.0 mm 0.00 in0.0 mm
04:18 AM 58.3°F14.6°C 45.4°F7.4°C 62% 6.0 mph WSW9.7 kmh WSW 7.0 mph11.3 kmh 29.31 in992.6 mb 0.00 in0.0 mm 0.00 in0.0 mm 0.00 in0.0 mm
04:20 AM 58.1°F14.5°C 44.7°F7.1°C 61% 7.0 mph WSW11.3 kmh WSW 8.0 mph12.9 kmh 29.31 in992.6 mb 0.00 in0.0 mm 0.00 in0.0 mm 0.00 in0.0 mm
04:22 AM 58.0°F14.4°C 44.6°F7.0°C 61% 4.0 mph W6.4 kmh W 8.0 mph12.9 kmh 29.31 in992.6 mb 0.00 in0.0 mm 0.00 in0.0 mm 0.00 in0.0 mm
04:24 AM 57.8°F14.3°C 44.0°F6.7°C 60% 3.0 mph SW4.8 kmh SW 9.0 mph14.5 kmh 29.32 in992.9 mb 0.00 in0.0 mm 0.00 in0.0 mm 0.00 in0.0 mm
04:26 AM 57.7°F14.3°C 43.9°F6.6°C 60% 5.0 mph SW8.0 kmh SW 10.0 mph16.1 kmh 29.31 in992.6 mb 0.00 in0.0 mm 0.00 in0.0 mm 0.00 in0.0 mm
04:28 AM 57.5°F14.2°C 43.3°F6.3°C 59% 4.0 mph SW6.4 kmh SW 15.0 mph24.1 kmh 29.32 in992.9 mb 0.00 in0.0 mm 0.00 in0.0 mm 0.00 in0.0 mm
04:30 AM 57.3°F14.1°C 43.1°F6.2°C 59% 12.0 mph W19.3 kmh W 12.0 mph19.3 kmh 29.31 in992.6 mb 0.00 in0.0 mm 0.00 in0.0 mm 0.00 in0.0 mm
04:32 AM 57.3°F14.1°C 41.8°F5.4°C 56% 7.0 mph SW11.3 kmh SW 8.0 mph12.9 kmh 29.31 in992.6 mb 0.00 in0.0 mm 0.00 in0.0 mm 0.00 in0.0 mm
04:34 AM 57.2°F14.0°C 41.2°F5.1°C 55% 11.0 mph WSW17.7 kmh WSW 11.0 mph17.7 kmh 29.32 in992.9 mb 0.00 in0.0 mm 0.00 in0.0 mm 0.00 in0.0 mm
04:36 AM 57.2°F14.0°C 41.2°F5.1°C 55% 10.0 mph SSW16.1 kmh SSW 15.0 mph24.1 kmh 29.32 in992.9 mb 0.00 in0.0 mm 0.00 in0.0 mm 0.00 in0.0 mm
04:38 AM 57.2°F14.0°C 40.7°F4.8°C 54% 6.0 mph SSW9.7 kmh SSW 7.0 mph11.3 kmh 29.32 in992.9 mb 0.00 in0.0 mm 0.00 in0.0 mm 0.00 in0.0 mm
04:40 AM 57.2°F14.0°C 40.7°F4.8°C 54% 3.0 mph SW4.8 kmh SW 7.0 mph11.3 kmh 29.32 in992.9 mb 0.00 in0.0 mm 0.00 in0.0 mm 0.00 in0.0 mm
04:42 AM 57.1°F13.9°C 40.6°F4.8°C 54% 9.0 mph W14.5 kmh W 10.0 mph16.1 kmh 29.32 in992.9 mb 0.00 in0.0 mm 0.00 in0.0 mm 0.00 in0.0 mm
04:44 AM 57.0°F13.9°C 39.6°F4.2°C 52% 9.0 mph SW14.5 kmh SW 14.0 mph22.5 kmh 29.32 in992.9 mb 0.00 in0.0 mm 0.00 in0.0 mm 0.00 in0.0 mm
04:46 AM 56.9°F13.8°C 39.0°F3.9°C 51% 7.0 mph SSW11.3 kmh SSW 11.0 mph17.7 kmh 29.33 in993.2 mb 0.00 in0.0 mm 0.00 in0.0 mm 0.00 in0.0 mm
04:48 AM 56.9°F13.8°C 38.0°F3.3°C 49% 5.0 mph SW8.0 kmh SW 5.0 mph8.0 kmh 29.33 in993.2 mb 0.00 in0.0 mm 0.00 in0.0 mm 0.00 in0.0 mm
04:50 AM 56.8°F13.8°C 37.9°F3.3°C 49% 5.0 mph SW8.0 kmh SW 8.0 mph12.9 kmh 29.33 in993.2 mb 0.00 in0.0 mm 0.00 in0.0 mm 0.00 in0.0 mm
04:52 AM 56.8°F13.8°C 37.3°F2.9°C 48% 9.0 mph SW14.5 kmh SW 9.0 mph14.5 kmh 29.33 in993.2 mb 0.00 in0.0 mm 0.00 in0.0 mm 0.00 in0.0 mm
04:54 AM 56.7°F13.7°C 37.3°F2.9°C 48% 5.0 mph SW8.0 kmh SW 11.0 mph17.7 kmh 29.33 in993.2 mb 0.00 in0.0 mm 0.00 in0.0 mm 0.00 in0.0 mm
04:56 AM 56.6°F13.7°C 36.6°F2.6°C 47% 4.0 mph WSW6.4 kmh WSW 4.0 mph6.4 kmh 29.33 in993.2 mb 0.00 in0.0 mm 0.00 in0.0 mm 0.00 in0.0 mm
04:58 AM 56.5°F13.6°C 36.5°F2.5°C 47% 6.0 mph SW9.7 kmh SW 8.0 mph12.9 kmh 29.33 in993.2 mb 0.00 in0.0 mm 0.00 in0.0 mm 0.00 in0.0 mm
05:00 AM 56.4°F13.6°C 36.4°F2.4°C 47% 3.0 mph NW4.8 kmh NW 7.0 mph11.3 kmh 29.33 in993.2 mb 0.00 in0.0 mm 0.00 in0.0 mm 0.00 in0.0 mm
05:02 AM 56.2°F13.4°C 36.3°F2.4°C 47% 13.0 mph WSW20.9 kmh WSW 13.0 mph20.9 kmh 29.33 in993.2 mb 0.00 in0.0 mm 0.00 in0.0 mm 0.00 in0.0 mm
05:04 AM 56.1°F13.4°C 35.1°F1.7°C 45% 7.0 mph SSW11.3 kmh SSW 12.0 mph19.3 kmh 29.32 in992.9 mb 0.00 in0.0 mm 0.00 in0.0 mm 0.00 in0.0 mm
05:06 AM 56.0°F13.3°C 35.0°F1.7°C 45% 4.0 mph SW6.4 kmh SW 8.0 mph12.9 kmh 29.33 in993.2 mb 0.00 in0.0 mm 0.00 in0.0 mm 0.00 in0.0 mm
05:08 AM 56.0°F13.3°C 35.0°F1.7°C 45% 9.0 mph WSW14.5 kmh WSW 12.0 mph19.3 kmh 29.33 in993.2 mb 0.00 in0.0 mm 0.00 in0.0 mm 0.00 in0.0 mm
05:10 AM 55.9°F13.3°C 34.9°F1.6°C 45% 5.0 mph SSW8.0 kmh SSW 16.0 mph25.7 kmh 29.33 in993.2 mb 0.00 in0.0 mm 0.00 in0.0 mm 0.00 in0.0 mm
05:12 AM 55.8°F13.2°C 34.8°F1.6°C 45% 5.0 mph WSW8.0 kmh WSW 9.0 mph14.5 kmh 29.33 in993.2 mb 0.00 in0.0 mm 0.00 in0.0 mm 0.00 in0.0 mm
05:14 AM 55.8°F13.2°C 35.4°F1.9°C 46% 2.0 mph SW3.2 kmh SW 9.0 mph14.5 kmh 29.33 in993.2 mb 0.00 in0.0 mm 0.00 in0.0 mm 0.00 in0.0 mm
05:16 AM 55.7°F13.2°C 35.3°F1.8°C 46% 11.0 mph NW17.7 kmh NW 14.0 mph22.5 kmh 29.33 in993.2 mb 0.00 in0.0 mm 0.00 in0.0 mm 0.00 in0.0 mm
05:18 AM 55.5°F13.1°C 35.1°F1.7°C 46% 4.0 mph WNW6.4 kmh WNW 4.0 mph6.4 kmh 29.34 in993.6 mb 0.00 in0.0 mm 0.00 in0.0 mm 0.00 in0.0 mm
05:20 AM 55.4°F13.0°C 35.0°F1.7°C 46% 6.0 mph WSW9.7 kmh WSW 9.0 mph14.5 kmh 29.33 in993.2 mb 0.00 in0.0 mm 0.00 in0.0 mm 0.00 in0.0 mm
05:22 AM 55.3°F12.9°C 35.4°F1.9°C 47% 10.0 mph SW16.1 kmh SW 20.0 mph32.2 kmh 29.33 in993.2 mb 0.00 in0.0 mm 0.00 in0.0 mm 0.00 in0.0 mm
05:24 AM 55.2°F12.9°C 34.8°F1.6°C 46% 23.0 mph SSW37.0 kmh SSW 23.0 mph37.0 kmh 29.33 in993.2 mb 0.00 in0.0 mm 0.00 in0.0 mm 0.00 in0.0 mm
05:26 AM 55.1°F12.8°C 34.7°F1.5°C 46% 5.0 mph SW8.0 kmh SW 13.0 mph20.9 kmh 29.34 in993.6 mb 0.00 in0.0 mm 0.00 in0.0 mm 0.00 in0.0 mm
05:28 AM 55.2°F12.9°C 34.3°F1.3°C 45% 5.0 mph W8.0 kmh W 10.0 mph16.1 kmh 29.34 in993.6 mb 0.00 in0.0 mm 0.00 in0.0 mm 0.00 in0.0 mm
05:30 AM 55.1°F12.8°C 34.7°F1.5°C 46% 5.0 mph SW8.0 kmh SW 10.0 mph16.1 kmh 29.34 in993.6 mb 0.00 in0.0 mm 0.00 in0.0 mm 0.00 in0.0 mm
05:32 AM 55.1°F12.8°C 34.7°F1.5°C 46% 5.0 mph W8.0 kmh W 10.0 mph16.1 kmh 29.33 in993.2 mb 0.00 in0.0 mm 0.00 in0.0 mm 0.00 in0.0 mm
05:34 AM 54.9°F12.7°C 34.5°F1.4°C 46% 2.0 mph WSW3.2 kmh WSW 3.0 mph4.8 kmh 29.34 in993.6 mb 0.00 in0.0 mm 0.00 in0.0 mm 0.00 in0.0 mm
05:36 AM 54.8°F12.7°C 35.0°F1.7°C 47% 8.0 mph WSW12.9 kmh WSW 9.0 mph14.5 kmh 29.34 in993.6 mb 0.00 in0.0 mm 0.00 in0.0 mm 0.00 in0.0 mm
05:38 AM 54.6°F12.6°C 35.3°F1.8°C 48% 2.0 mph W3.2 kmh W 4.0 mph6.4 kmh 29.34 in993.6 mb 0.00 in0.0 mm 0.00 in0.0 mm 0.00 in0.0 mm
05:40 AM 54.5°F12.5°C 35.2°F1.8°C 48% 7.0 mph SW11.3 kmh SW 7.0 mph11.3 kmh 29.34 in993.6 mb 0.00 in0.0 mm 0.00 in0.0 mm 0.00 in0.0 mm
05:42 AM 54.4°F12.4°C 34.6°F1.4°C 47% 7.0 mph SW11.3 kmh SW 9.0 mph14.5 kmh 29.34 in993.6 mb 0.00 in0.0 mm 0.00 in0.0 mm 0.00 in0.0 mm
05:44 AM 54.3°F12.4°C 35.1°F1.7°C 48% 10.0 mph SW16.1 kmh SW 16.0 mph25.7 kmh 29.35 in993.9 mb 0.00 in0.0 mm 0.00 in0.0 mm 0.00 in0.0 mm
05:46 AM 54.2°F12.3°C 35.0°F1.7°C 48% 8.0 mph SW12.9 kmh SW 11.0 mph17.7 kmh 29.34 in993.6 mb 0.00 in0.0 mm 0.00 in0.0 mm 0.00 in0.0 mm
05:48 AM 54.2°F12.3°C 35.0°F1.7°C 48% 4.0 mph SW6.4 kmh SW 11.0 mph17.7 kmh 29.35 in993.9 mb 0.00 in0.0 mm 0.00 in0.0 mm 0.00 in0.0 mm
05:50 AM 54.2°F12.3°C 35.0°F1.7°C 48% 5.0 mph SW8.0 kmh SW 7.0 mph11.3 kmh 29.35 in993.9 mb 0.00 in0.0 mm 0.00 in0.0 mm 0.00 in0.0 mm
05:52 AM 54.1°F12.3°C 35.4°F1.9°C 49% 4.0 mph WSW6.4 kmh WSW 9.0 mph14.5 kmh 29.35 in993.9 mb 0.00 in0.0 mm 0.00 in0.0 mm 0.00 in0.0 mm
05:54 AM 54.0°F12.2°C 35.3°F1.8°C 49% 6.0 mph SW9.7 kmh SW 12.0 mph19.3 kmh 29.35 in993.9 mb 0.00 in0.0 mm 0.00 in0.0 mm 0.00 in0.0 mm
05:56 AM 53.9°F12.2°C 35.7°F2.1°C 50% 8.0 mph WSW12.9 kmh WSW 10.0 mph16.1 kmh 29.35 in993.9 mb 0.00 in0.0 mm 0.00 in0.0 mm 0.00 in0.0 mm
05:58 AM 53.8°F12.1°C 35.6°F2.0°C 50% 6.0 mph SW9.7 kmh SW 20.0 mph32.2 kmh 29.35 in993.9 mb 0.00 in0.0 mm 0.00 in0.0 mm 0.00 in0.0 mm
06:00 AM 53.6°F12.0°C 33.3°F0.7°C 46% 7.0 mph SW11.3 kmh SW 18.0 mph29.0 kmh 29.35 in993.9 mb 0.00 in0.0 mm 0.00 in0.0 mm 0.00 in0.0 mm
06:02 AM 53.5°F11.9°C 32.7°F0.4°C 45% 10.0 mph SW16.1 kmh SW 21.0 mph33.8 kmh 29.36 in994.2 mb 0.00 in0.0 mm 0.00 in0.0 mm 0.00 in0.0 mm
06:04 AM 53.3°F11.8°C 29.6°F-1.3°C 40% 13.0 mph SW20.9 kmh SW 21.0 mph33.8 kmh 29.35 in993.9 mb 0.00 in0.0 mm 0.00 in0.0 mm 0.00 in0.0 mm
06:06 AM 53.2°F11.8°C 28.3°F-2.1°C 38% 19.0 mph WSW30.6 kmh WSW 22.0 mph35.4 kmh 29.35 in993.9 mb 0.00 in0.0 mm 0.00 in0.0 mm 0.00 in0.0 mm
06:08 AM 53.0°F11.7°C 27.4°F-2.6°C 37% 7.0 mph SSW11.3 kmh SSW 15.0 mph24.1 kmh 29.34 in993.6 mb 0.00 in0.0 mm 0.00 in0.0 mm 0.00 in0.0 mm
06:10 AM 52.8°F11.6°C 27.9°F-2.3°C 38% 19.0 mph SW30.6 kmh SW 19.0 mph30.6 kmh 29.35 in993.9 mb 0.00 in0.0 mm 0.00 in0.0 mm 0.00 in0.0 mm
06:12 AM 52.7°F11.5°C 27.8°F-2.3°C 38% 15.0 mph WSW24.1 kmh WSW 20.0 mph32.2 kmh 29.35 in993.9 mb 0.00 in0.0 mm 0.00 in0.0 mm 0.00 in0.0 mm
06:14 AM 52.5°F11.4°C 28.3°F-2.1°C 39% 6.0 mph SSW9.7 kmh SSW 12.0 mph19.3 kmh 29.36 in994.2 mb 0.00 in0.0 mm 0.00 in0.0 mm 0.00 in0.0 mm
06:16 AM 52.3°F11.3°C 28.7°F-1.8°C 40% 7.0 mph SW11.3 kmh SW 16.0 mph25.7 kmh 29.36 in994.2 mb 0.00 in0.0 mm 0.00 in0.0 mm 0.00 in0.0 mm
06:18 AM 52.1°F11.2°C 29.1°F-1.6°C 41% 19.0 mph SW30.6 kmh SW 22.0 mph35.4 kmh 29.36 in994.2 mb 0.00 in0.0 mm 0.00 in0.0 mm 0.00 in0.0 mm
06:20 AM 51.9°F11.1°C 29.0°F-1.7°C 41% 10.0 mph SW16.1 kmh SW 15.0 mph24.1 kmh 29.36 in994.2 mb 0.00 in0.0 mm 0.00 in0.0 mm 0.00 in0.0 mm
06:22 AM 51.8°F11.0°C 29.5°F-1.4°C 42% 9.0 mph SW14.5 kmh SW 9.0 mph14.5 kmh 29.36 in994.2 mb 0.00 in0.0 mm 0.00 in0.0 mm 0.00 in0.0 mm
06:24 AM 51.7°F10.9°C 29.4°F-1.4°C 42% 10.0 mph SW16.1 kmh SW 15.0 mph24.1 kmh 29.36 in994.2 mb 0.00 in0.0 mm 0.00 in0.0 mm 0.00 in0.0 mm
06:26 AM 51.5°F10.8°C 29.8°F-1.2°C 43% 10.0 mph WSW16.1 kmh WSW 15.0 mph24.1 kmh 29.37 in994.6 mb 0.00 in0.0 mm 0.00 in0.0 mm 0.00 in0.0 mm
06:28 AM 51.4°F10.8°C 30.2°F-1.0°C 44% 8.0 mph SW12.9 kmh SW 10.0 mph16.1 kmh 29.36 in994.2 mb 0.00 in0.0 mm 0.00 in0.0 mm 0.00 in0.0 mm
06:30 AM 51.3°F10.7°C 30.2°F-1.0°C 44% 11.0 mph WNW17.7 kmh WNW 15.0 mph24.1 kmh 29.36 in994.2 mb 0.00 in0.0 mm 0.00 in0.0 mm 0.00 in0.0 mm
06:32 AM 51.0°F10.6°C 30.4°F-0.9°C 45% 7.0 mph SW11.3 kmh SW 7.0 mph11.3 kmh 29.37 in994.6 mb 0.00 in0.0 mm 0.00 in0.0 mm 0.00 in0.0 mm
06:34 AM 50.8°F10.4°C 29.7°F-1.3°C 44% 7.0 mph WSW11.3 kmh WSW 16.0 mph25.7 kmh 29.37 in994.6 mb 0.00 in0.0 mm 0.00 in0.0 mm 0.00 in0.0 mm
06:36 AM 50.7°F10.4°C 30.2°F-1.0°C 45% 7.0 mph WSW11.3 kmh WSW 7.0 mph11.3 kmh 29.37 in994.6 mb 0.00 in0.0 mm 0.00 in0.0 mm 0.00 in0.0 mm
06:38 AM 50.6°F10.3°C 30.1°F-1.1°C 45% 9.0 mph WNW14.5 kmh WNW 12.0 mph19.3 kmh 29.37 in994.6 mb 0.00 in0.0 mm 0.00 in0.0 mm 0.00 in0.0 mm
06:40 AM 50.4°F10.2°C 29.9°F-1.2°C 45% 4.0 mph SW6.4 kmh SW 10.0 mph16.1 kmh 29.38 in994.9 mb 0.00 in0.0 mm 0.00 in0.0 mm 0.00 in0.0 mm
06:42 AM 50.3°F10.2°C 29.8°F-1.2°C 45% 10.0 mph SW16.1 kmh SW 10.0 mph16.1 kmh 29.38 in994.9 mb 0.00 in0.0 mm 0.00 in0.0 mm 0.00 in0.0 mm
06:44 AM 50.3°F10.2°C 29.8°F-1.2°C 45% 11.0 mph SW17.7 kmh SW 11.0 mph17.7 kmh 29.38 in994.9 mb 0.00 in0.0 mm 0.00 in0.0 mm 0.00 in0.0 mm
06:46 AM 50.1°F10.1°C 29.6°F-1.3°C 45% 11.0 mph WSW17.7 kmh WSW 15.0 mph24.1 kmh 29.38 in994.9 mb 0.00 in0.0 mm 0.00 in0.0 mm 0.00 in0.0 mm
06:48 AM 50.1°F10.1°C 29.6°F-1.3°C 45% 11.0 mph WSW17.7 kmh WSW 15.0 mph24.1 kmh 29.38 in994.9 mb 0.00 in0.0 mm 0.00 in0.0 mm 0.00 in0.0 mm
06:50 AM 50.0°F10.0°C 29.5°F-1.4°C 45% 4.0 mph SW6.4 kmh SW 6.0 mph9.7 kmh 29.38 in994.9 mb 0.00 in0.0 mm 0.00 in0.0 mm 0.00 in0.0 mm
06:52 AM 49.9°F9.9°C 29.4°F-1.4°C 45% 9.0 mph NW14.5 kmh NW 15.0 mph24.1 kmh 29.39 in995.3 mb 0.00 in0.0 mm 0.00 in0.0 mm 0.00 in0.0 mm
06:54 AM 49.8°F9.9°C 28.8°F-1.8°C 44% 15.0 mph SW24.1 kmh SW 15.0 mph24.1 kmh 29.37 in994.6 mb 0.00 in0.0 mm 0.00 in0.0 mm 0.00 in0.0 mm
06:56 AM 49.7°F9.8°C 28.7°F-1.8°C 44% 7.0 mph W11.3 kmh W 9.0 mph14.5 kmh 29.38 in994.9 mb 0.00 in0.0 mm 0.00 in0.0 mm 0.00 in0.0 mm
06:58 AM 49.6°F9.8°C 28.6°F-1.9°C 44% 6.0 mph WSW9.7 kmh WSW 12.0 mph19.3 kmh 29.39 in995.3 mb 0.00 in0.0 mm 0.00 in0.0 mm 0.00 in0.0 mm
07:04 AM 49.4°F9.7°C 28.4°F-2.0°C 44% 5.0 mph WSW8.0 kmh WSW 6.0 mph9.7 kmh 29.39 in995.3 mb 0.00 in0.0 mm 0.00 in0.0 mm 0.00 in0.0 mm
07:06 AM 49.3°F9.6°C 28.9°F-1.7°C 45% 2.0 mph W3.2 kmh W 4.0 mph6.4 kmh 29.39 in995.3 mb 0.00 in0.0 mm 0.00 in0.0 mm 0.00 in0.0 mm
07:08 AM 49.2°F9.6°C 28.8°F-1.8°C 45% 2.0 mph SW3.2 kmh SW 12.0 mph19.3 kmh 29.39 in995.3 mb 0.00 in0.0 mm 0.00 in0.0 mm 0.00 in0.0 mm
07:10 AM 49.1°F9.5°C 28.7°F-1.8°C 45% 4.0 mph SW6.4 kmh SW 4.0 mph6.4 kmh 29.39 in995.3 mb 0.00 in0.0 mm 0.00 in0.0 mm 0.00 in0.0 mm
07:12 AM 49.0°F9.4°C 28.6°F-1.9°C 45% 4.0 mph WSW6.4 kmh WSW 4.0 mph6.4 kmh 29.39 in995.3 mb 0.00 in0.0 mm 0.00 in0.0 mm 0.00 in0.0 mm
07:14 AM 48.9°F9.4°C 28.5°F-1.9°C 45% 6.0 mph WSW9.7 kmh WSW 6.0 mph9.7 kmh 29.39 in995.3 mb 0.00 in0.0 mm 0.00 in0.0 mm 0.00 in0.0 mm
07:16 AM 48.8°F9.3°C 28.4°F-2.0°C 45% 5.0 mph SW8.0 kmh SW 5.0 mph8.0 kmh 29.39 in995.3 mb 0.00 in0.0 mm 0.00 in0.0 mm 0.00 in0.0 mm
07:18 AM 48.7°F9.3°C 28.3°F-2.1°C 45% 5.0 mph W8.0 kmh W 10.0 mph16.1 kmh 29.39 in995.3 mb 0.00 in0.0 mm 0.00 in0.0 mm 0.00 in0.0 mm
07:20 AM 48.7°F9.3°C 27.8°F-2.3°C 44% 2.0 mph SW3.2 kmh SW 10.0 mph16.1 kmh 29.39 in995.3 mb 0.00 in0.0 mm 0.00 in0.0 mm 0.00 in0.0 mm
07:22 AM 48.6°F9.2°C 28.2°F-2.1°C 45% 3.0 mph WSW4.8 kmh WSW 5.0 mph8.0 kmh 29.40 in995.6 mb 0.00 in0.0 mm 0.00 in0.0 mm 0.00 in0.0 mm
07:24 AM 48.6°F9.2°C 28.2°F-2.1°C 45% 4.0 mph WSW6.4 kmh WSW 14.0 mph22.5 kmh 29.40 in995.6 mb 0.00 in0.0 mm 0.00 in0.0 mm 0.00 in0.0 mm
07:26 AM 48.5°F9.2°C 28.2°F-2.1°C 45% 4.0 mph WNW6.4 kmh WNW 11.0 mph17.7 kmh 29.40 in995.6 mb 0.00 in0.0 mm 0.00 in0.0 mm 0.00 in0.0 mm
07:28 AM 48.5°F9.2°C 28.7°F-1.8°C 46% 11.0 mph SW17.7 kmh SW 11.0 mph17.7 kmh 29.40 in995.6 mb 0.00 in0.0 mm 0.00 in0.0 mm 0.00 in0.0 mm
07:30 AM 48.4°F9.1°C 28.1°F-2.2°C 45% 4.0 mph SW6.4 kmh SW 5.0 mph8.0 kmh 29.40 in995.6 mb 0.00 in0.0 mm 0.00 in0.0 mm 0.00 in0.0 mm
07:32 AM 48.3°F9.1°C 28.5°F-1.9°C 46% 6.0 mph SW9.7 kmh SW 9.0 mph14.5 kmh 29.40 in995.6 mb 0.00 in0.0 mm 0.00 in0.0 mm 0.00 in0.0 mm
07:34 AM 48.2°F9.0°C 27.9°F-2.3°C 45% 3.0 mph WSW4.8 kmh WSW 5.0 mph8.0 kmh 29.40 in995.6 mb 0.00 in0.0 mm 0.00 in0.0 mm 0.00 in0.0 mm
07:36 AM 48.1°F8.9°C 27.8°F-2.3°C 45% 6.0 mph NW9.7 kmh NW 12.0 mph19.3 kmh 29.40 in995.6 mb 0.00 in0.0 mm 0.00 in0.0 mm 0.00 in0.0 mm
07:38 AM 48.1°F8.9°C 27.8°F-2.3°C 45% 7.0 mph SW11.3 kmh SW 13.0 mph20.9 kmh 29.41 in995.9 mb 0.00 in0.0 mm 0.00 in0.0 mm 0.00 in0.0 mm
07:40 AM 48.2°F9.0°C 27.9°F-2.3°C 45% 4.0 mph SW6.4 kmh SW 4.0 mph6.4 kmh 29.41 in995.9 mb 0.00 in0.0 mm 0.00 in0.0 mm 0.00 in0.0 mm
07:42 AM 48.1°F8.9°C 28.3°F-2.1°C 46% 5.0 mph W8.0 kmh W 5.0 mph8.0 kmh 29.41 in995.9 mb 0.00 in0.0 mm 0.00 in0.0 mm 0.00 in0.0 mm
07:44 AM 48.1°F8.9°C 28.3°F-2.1°C 46% 15.0 mph SSW24.1 kmh SSW 17.0 mph27.4 kmh 29.41 in995.9 mb 0.00 in0.0 mm 0.00 in0.0 mm 0.00 in0.0 mm
07:46 AM 48.2°F9.0°C 28.4°F-2.0°C 46% 2.0 mph WSW3.2 kmh WSW 3.0 mph4.8 kmh 29.41 in995.9 mb 0.00 in0.0 mm 0.00 in0.0 mm 0.00 in0.0 mm
07:48 AM 48.2°F9.0°C 27.9°F-2.3°C 45% 4.0 mph W6.4 kmh W 9.0 mph14.5 kmh 29.41 in995.9 mb 0.00 in0.0 mm 0.00 in0.0 mm 0.00 in0.0 mm
07:50 AM 48.2°F9.0°C 28.4°F-2.0°C 46% 4.0 mph WSW6.4 kmh WSW 5.0 mph8.0 kmh 29.40 in995.6 mb 0.00 in0.0 mm 0.00 in0.0 mm 0.00 in0.0 mm
07:52 AM 48.2°F9.0°C 28.4°F-2.0°C 46% 6.0 mph SSW9.7 kmh SSW 6.0 mph9.7 kmh 29.41 in995.9 mb 0.00 in0.0 mm 0.00 in0.0 mm 0.00 in0.0 mm
07:54 AM 48.2°F9.0°C 28.4°F-2.0°C 46% 2.0 mph NW3.2 kmh NW 3.0 mph4.8 kmh 29.41 in995.9 mb 0.00 in0.0 mm 0.00 in0.0 mm 0.00 in0.0 mm
07:56 AM 48.2°F9.0°C 28.4°F-2.0°C 46% 3.0 mph SW4.8 kmh SW 4.0 mph6.4 kmh 29.41 in995.9 mb 0.00 in0.0 mm 0.00 in0.0 mm 0.00 in0.0 mm
07:58 AM 48.2°F9.0°C 28.9°F-1.7°C 47% 6.0 mph WSW9.7 kmh WSW 6.0 mph9.7 kmh 29.41 in995.9 mb 0.00 in0.0 mm 0.00 in0.0 mm 0.00 in0.0 mm
08:00 AM 48.2°F9.0°C 28.4°F-2.0°C 46% 4.0 mph WNW6.4 kmh WNW 5.0 mph8.0 kmh 29.41 in995.9 mb 0.00 in0.0 mm 0.00 in0.0 mm 0.00 in0.0 mm
08:02 AM 48.2°F9.0°C 28.4°F-2.0°C 46% 4.0 mph SW6.4 kmh SW 4.0 mph6.4 kmh 29.41 in995.9 mb 0.00 in0.0 mm 0.00 in0.0 mm 0.00 in0.0 mm
08:04 AM 48.2°F9.0°C 28.9°F-1.7°C 47% 6.0 mph SW9.7 kmh SW 9.0 mph14.5 kmh 29.41 in995.9 mb 0.00 in0.0 mm 0.00 in0.0 mm 0.00 in0.0 mm
08:06 AM 48.3°F9.1°C 28.5°F-1.9°C 46% 3.0 mph SSW4.8 kmh SSW 6.0 mph9.7 kmh 29.41 in995.9 mb 0.00 in0.0 mm 0.00 in0.0 mm 0.00 in0.0 mm
08:08 AM 48.4°F9.1°C 28.6°F-1.9°C 46% 2.0 mph SSW3.2 kmh SSW 3.0 mph4.8 kmh 29.42 in996.3 mb 0.00 in0.0 mm 0.00 in0.0 mm 0.00 in0.0 mm
08:10 AM 48.4°F9.1°C 29.1°F-1.6°C 47% 7.0 mph WSW11.3 kmh WSW 7.0 mph11.3 kmh 29.42 in996.3 mb 0.00 in0.0 mm 0.00 in0.0 mm 0.00 in0.0 mm
08:12 AM 48.4°F9.1°C 29.1°F-1.6°C 47% 2.0 mph SW3.2 kmh SW 2.0 mph3.2 kmh 29.42 in996.3 mb 0.00 in0.0 mm 0.00 in0.0 mm 0.00 in0.0 mm
08:14 AM 48.5°F9.2°C 29.2°F-1.6°C 47% 5.0 mph WSW8.0 kmh WSW 5.0 mph8.0 kmh 29.42 in996.3 mb 0.00 in0.0 mm 0.00 in0.0 mm 0.00 in0.0 mm
08:16 AM 48.5°F9.2°C 28.7°F-1.8°C 46% 12.0 mph SW19.3 kmh SW 14.0 mph22.5 kmh 29.42 in996.3 mb 0.00 in0.0 mm 0.00 in0.0 mm 0.00 in0.0 mm
08:18 AM 48.5°F9.2°C 28.7°F-1.8°C 46% 9.0 mph WSW14.5 kmh WSW 9.0 mph14.5 kmh 29.42 in996.3 mb 0.00 in0.0 mm 0.00 in0.0 mm 0.00 in0.0 mm
08:20 AM 48.5°F9.2°C 28.7°F-1.8°C 46% 5.0 mph SW8.0 kmh SW 12.0 mph19.3 kmh 29.43 in996.6 mb 0.00 in0.0 mm 0.00 in0.0 mm 0.00 in0.0 mm
08:22 AM 48.5°F9.2°C 29.2°F-1.6°C 47% 3.0 mph W4.8 kmh W 5.0 mph8.0 kmh 29.43 in996.6 mb 0.00 in0.0 mm 0.00 in0.0 mm 0.00 in0.0 mm
08:24 AM 48.5°F9.2°C 29.2°F-1.6°C 47% 12.0 mph W19.3 kmh W 13.0 mph20.9 kmh 29.42 in996.3 mb 0.00 in0.0 mm 0.00 in0.0 mm 0.00 in0.0 mm
08:26 AM 48.4°F9.1°C 29.1°F-1.6°C 47% 7.0 mph S11.3 kmh S 15.0 mph24.1 kmh 29.43 in996.6 mb 0.00 in0.0 mm 0.00 in0.0 mm 0.00 in0.0 mm
08:28 AM 48.3°F9.1°C 29.5°F-1.4°C 48% 5.0 mph SW8.0 kmh SW 6.0 mph9.7 kmh 29.43 in996.6 mb 0.00 in0.0 mm 0.00 in0.0 mm 0.00 in0.0 mm
08:30 AM 48.3°F9.1°C 30.0°F-1.1°C 49% 12.0 mph W19.3 kmh W 12.0 mph19.3 kmh 29.42 in996.3 mb 0.00 in0.0 mm 0.00 in0.0 mm 0.00 in0.0 mm
08:32 AM 48.2°F9.0°C 28.9°F-1.7°C 47% 14.0 mph WNW22.5 kmh WNW 21.0 mph33.8 kmh 29.43 in996.6 mb 0.00 in0.0 mm 0.00 in0.0 mm 0.00 in0.0 mm
08:34 AM 48.2°F9.0°C 29.5°F-1.4°C 48% 5.0 mph W8.0 kmh W 8.0 mph12.9 kmh 29.43 in996.6 mb 0.00 in0.0 mm 0.00 in0.0 mm 0.00 in0.0 mm
08:36 AM 48.1°F8.9°C 29.9°F-1.2°C 49% 9.0 mph SW14.5 kmh SW 10.0 mph16.1 kmh 29.43 in996.6 mb 0.00 in0.0 mm 0.00 in0.0 mm 0.00 in0.0 mm
08:38 AM 48.1°F8.9°C 28.8°F-1.8°C 47% 7.0 mph WSW11.3 kmh WSW 15.0 mph24.1 kmh 29.43 in996.6 mb 0.00 in0.0 mm 0.00 in0.0 mm 0.00 in0.0 mm
08:40 AM 48.1°F8.9°C 29.4°F-1.4°C 48% 17.0 mph WNW27.4 kmh WNW 24.0 mph38.6 kmh 29.43 in996.6 mb 0.00 in0.0 mm 0.00 in0.0 mm 0.00 in0.0 mm
08:42 AM 48.1°F8.9°C 29.4°F-1.4°C 48% 14.0 mph WSW22.5 kmh WSW 14.0 mph22.5 kmh 29.44 in997.0 mb 0.00 in0.0 mm 0.00 in0.0 mm 0.00 in0.0 mm
08:44 AM 48.0°F8.9°C 29.3°F-1.5°C 48% 15.0 mph W24.1 kmh W 16.0 mph25.7 kmh 29.44 in997.0 mb 0.00 in0.0 mm 0.00 in0.0 mm 0.00 in0.0 mm
08:46 AM 47.9°F8.8°C 29.2°F-1.6°C 48% 3.0 mph NW4.8 kmh NW 5.0 mph8.0 kmh 29.44 in997.0 mb 0.00 in0.0 mm 0.00 in0.0 mm 0.00 in0.0 mm
08:48 AM 47.9°F8.8°C 29.7°F-1.3°C 49% 3.0 mph W4.8 kmh W 5.0 mph8.0 kmh 29.44 in997.0 mb 0.00 in0.0 mm 0.00 in0.0 mm 0.00 in0.0 mm
08:50 AM 47.9°F8.8°C 29.7°F-1.3°C 49% 15.0 mph NNW24.1 kmh NNW 18.0 mph29.0 kmh 29.44 in997.0 mb 0.00 in0.0 mm 0.00 in0.0 mm 0.00 in0.0 mm
08:52 AM 47.8°F8.8°C 29.6°F-1.3°C 49% 10.0 mph WNW16.1 kmh WNW 17.0 mph27.4 kmh 29.44 in997.0 mb 0.00 in0.0 mm 0.00 in0.0 mm 0.00 in0.0 mm
08:54 AM 47.7°F8.7°C 30.0°F-1.1°C 50% 5.0 mph WSW8.0 kmh WSW 17.0 mph27.4 kmh 29.44 in997.0 mb 0.00 in0.0 mm 0.00 in0.0 mm 0.00 in0.0 mm
08:56 AM 47.6°F8.7°C 29.9°F-1.2°C 50% 27.0 mph WSW43.5 kmh WSW 27.0 mph43.5 kmh 29.43 in996.6 mb 0.00 in0.0 mm 0.00 in0.0 mm 0.00 in0.0 mm
08:58 AM 47.6°F8.7°C 29.9°F-1.2°C 50% 18.0 mph W29.0 kmh W 20.0 mph32.2 kmh 29.44 in997.0 mb 0.00 in0.0 mm 0.00 in0.0 mm 0.00 in0.0 mm
09:00 AM 47.5°F8.6°C 30.3°F-0.9°C 51% 6.0 mph WNW9.7 kmh WNW 23.0 mph37.0 kmh 29.45 in997.3 mb 0.00 in0.0 mm 0.00 in0.0 mm 0.00 in0.0 mm
09:02 AM 47.4°F8.6°C 30.7°F-0.7°C 52% 12.0 mph W19.3 kmh W 12.0 mph19.3 kmh 29.45 in997.3 mb 0.00 in0.0 mm 0.00 in0.0 mm 0.00 in0.0 mm
09:04 AM 47.4°F8.6°C 31.1°F-0.5°C 53% 10.0 mph W16.1 kmh W 18.0 mph29.0 kmh 29.45 in997.3 mb 0.00 in0.0 mm 0.00 in0.0 mm 0.00 in0.0 mm
09:06 AM 47.4°F8.6°C 31.1°F-0.5°C 53% 13.0 mph W20.9 kmh W 22.0 mph35.4 kmh 29.46 in997.6 mb 0.00 in0.0 mm 0.00 in0.0 mm 0.00 in0.0 mm
09:08 AM 47.4°F8.6°C 31.1°F-0.5°C 53% 17.0 mph NW27.4 kmh NW 17.0 mph27.4 kmh 29.45 in997.3 mb 0.00 in0.0 mm 0.00 in0.0 mm 0.00 in0.0 mm
09:10 AM 47.3°F8.5°C 31.5°F-0.3°C 54% 5.0 mph SW8.0 kmh SW 20.0 mph32.2 kmh 29.45 in997.3 mb 0.00 in0.0 mm 0.00 in0.0 mm 0.00 in0.0 mm
09:12 AM 47.2°F8.4°C 31.4°F-0.3°C 54% 10.0 mph W16.1 kmh W 15.0 mph24.1 kmh 29.46 in997.6 mb 0.00 in0.0 mm 0.00 in0.0 mm 0.00 in0.0 mm
09:14 AM 47.1°F8.4°C 31.3°F-0.4°C 54% 6.0 mph NW9.7 kmh NW 16.0 mph25.7 kmh 29.46 in997.6 mb 0.00 in0.0 mm 0.00 in0.0 mm 0.00 in0.0 mm
09:16 AM 47.1°F8.4°C 31.8°F-0.1°C 55% 6.0 mph NW9.7 kmh NW 15.0 mph24.1 kmh 29.46 in997.6 mb 0.00 in0.0 mm 0.00 in0.0 mm 0.00 in0.0 mm
09:18 AM 47.1°F8.4°C 32.2°F0.1°C 56% 6.0 mph NNW9.7 kmh NNW 12.0 mph19.3 kmh 29.47 in998.0 mb 0.00 in0.0 mm 0.00 in0.0 mm 0.00 in0.0 mm
09:20 AM 47.0°F8.3°C 31.7°F-0.2°C 55% 4.0 mph WSW6.4 kmh WSW 12.0 mph19.3 kmh 29.47 in998.0 mb 0.00 in0.0 mm 0.00 in0.0 mm 0.00 in0.0 mm
09:22 AM 46.9°F8.3°C 31.6°F-0.2°C 55% 12.0 mph SW19.3 kmh SW 12.0 mph19.3 kmh 29.46 in997.6 mb 0.00 in0.0 mm 0.00 in0.0 mm 0.00 in0.0 mm
09:24 AM 46.8°F8.2°C 31.5°F-0.3°C 55% 29.0 mph NW46.7 kmh NW 29.0 mph46.7 kmh 29.47 in998.0 mb 0.00 in0.0 mm 0.00 in0.0 mm 0.00 in0.0 mm
09:26 AM 46.7°F8.2°C 30.5°F-0.8°C 53% 12.0 mph WSW19.3 kmh WSW 20.0 mph32.2 kmh 29.47 in998.0 mb 0.00 in0.0 mm 0.00 in0.0 mm 0.00 in0.0 mm
09:28 AM 46.6°F8.1°C 30.4°F-0.9°C 53% 4.0 mph SW6.4 kmh SW 6.0 mph9.7 kmh 29.46 in997.6 mb 0.00 in0.0 mm 0.00 in0.0 mm 0.00 in0.0 mm
09:30 AM 46.6°F8.1°C 29.9°F-1.2°C 52% 11.0 mph SW17.7 kmh SW 15.0 mph24.1 kmh 29.46 in997.6 mb 0.00 in0.0 mm 0.00 in0.0 mm 0.00 in0.0 mm
09:32 AM 46.6°F8.1°C 29.9°F-1.2°C 52% 12.0 mph W19.3 kmh W 16.0 mph25.7 kmh 29.47 in998.0 mb 0.00 in0.0 mm 0.00 in0.0 mm 0.00 in0.0 mm
09:34 AM 46.5°F8.1°C 29.8°F-1.2°C 52% 7.0 mph NW11.3 kmh NW 7.0 mph11.3 kmh 29.47 in998.0 mb 0.00 in0.0 mm 0.00 in0.0 mm 0.00 in0.0 mm
09:36 AM 46.5°F8.1°C 29.8°F-1.2°C 52% 15.0 mph WSW24.1 kmh WSW 28.0 mph45.1 kmh 29.47 in998.0 mb 0.00 in0.0 mm 0.00 in0.0 mm 0.00 in0.0 mm
09:38 AM 46.5°F8.1°C 29.8°F-1.2°C 52% 16.0 mph WSW25.7 kmh WSW 18.0 mph29.0 kmh 29.48 in998.3 mb 0.00 in0.0 mm 0.00 in0.0 mm 0.00 in0.0 mm
09:40 AM 46.4°F8.0°C 29.8°F-1.2°C 52% 5.0 mph WSW8.0 kmh WSW 11.0 mph17.7 kmh 29.48 in998.3 mb 0.00 in0.0 mm 0.00 in0.0 mm 0.00 in0.0 mm
09:42 AM 46.4°F8.0°C 30.2°F-1.0°C 53% 14.0 mph WSW22.5 kmh WSW 20.0 mph32.2 kmh 29.48 in998.3 mb 0.00 in0.0 mm 0.00 in0.0 mm 0.00 in0.0 mm
09:44 AM 46.5°F8.1°C 29.8°F-1.2°C 52% 6.0 mph NW9.7 kmh NW 11.0 mph17.7 kmh 29.48 in998.3 mb 0.00 in0.0 mm 0.00 in0.0 mm 0.00 in0.0 mm
09:46 AM 46.5°F8.1°C 30.3°F-0.9°C 53% 9.0 mph WNW14.5 kmh WNW 10.0 mph16.1 kmh 29.48 in998.3 mb 0.00 in0.0 mm 0.00 in0.0 mm 0.00 in0.0 mm
09:48 AM 46.6°F8.1°C 30.4°F-0.9°C 53% 17.0 mph SW27.4 kmh SW 20.0 mph32.2 kmh 29.48 in998.3 mb 0.00 in0.0 mm 0.00 in0.0 mm 0.00 in0.0 mm
09:50 AM 46.7°F8.2°C 30.0°F-1.1°C 52% 14.0 mph NW22.5 kmh NW 14.0 mph22.5 kmh 29.48 in998.3 mb 0.00 in0.0 mm 0.00 in0.0 mm 0.00 in0.0 mm
09:52 AM 46.7°F8.2°C 30.0°F-1.1°C 52% 4.0 mph W6.4 kmh W 16.0 mph25.7 kmh 29.47 in998.0 mb 0.00 in0.0 mm 0.00 in0.0 mm 0.00 in0.0 mm
09:54 AM 46.8°F8.2°C 30.1°F-1.1°C 52% 9.0 mph WSW14.5 kmh WSW 17.0 mph27.4 kmh 29.48 in998.3 mb 0.00 in0.0 mm 0.00 in0.0 mm 0.00 in0.0 mm
09:56 AM 46.8°F8.2°C 29.6°F-1.3°C 51% 5.0 mph SW8.0 kmh SW 9.0 mph14.5 kmh 29.48 in998.3 mb 0.00 in0.0 mm 0.00 in0.0 mm 0.00 in0.0 mm
09:58 AM 46.8°F8.2°C 28.7°F-1.8°C 49% 12.0 mph WNW19.3 kmh WNW 12.0 mph19.3 kmh 29.48 in998.3 mb 0.00 in0.0 mm 0.00 in0.0 mm 0.00 in0.0 mm
10:00 AM 46.8°F8.2°C 28.7°F-1.8°C 49% 22.0 mph NW35.4 kmh NW 22.0 mph35.4 kmh 29.49 in998.6 mb 0.00 in0.0 mm 0.00 in0.0 mm 0.00 in0.0 mm
10:02 AM 46.7°F8.2°C 28.6°F-1.9°C 49% 9.0 mph S14.5 kmh S 9.0 mph14.5 kmh 29.48 in998.3 mb 0.00 in0.0 mm 0.00 in0.0 mm 0.00 in0.0 mm
10:04 AM 46.6°F8.1°C 28.5°F-1.9°C 49% 5.0 mph SW8.0 kmh SW 17.0 mph27.4 kmh 29.49 in998.6 mb 0.00 in0.0 mm 0.00 in0.0 mm 0.00 in0.0 mm
10:06 AM 46.5°F8.1°C 28.4°F-2.0°C 49% 9.0 mph SW14.5 kmh SW 14.0 mph22.5 kmh 29.49 in998.6 mb 0.00 in0.0 mm 0.00 in0.0 mm 0.00 in0.0 mm
10:08 AM 46.5°F8.1°C 28.4°F-2.0°C 49% 5.0 mph W8.0 kmh W 10.0 mph16.1 kmh 29.49 in998.6 mb 0.00 in0.0 mm 0.00 in0.0 mm 0.00 in0.0 mm
10:10 AM 46.6°F8.1°C 28.5°F-1.9°C 49% 10.0 mph WNW16.1 kmh WNW 13.0 mph20.9 kmh 29.50 in999.0 mb 0.00 in0.0 mm 0.00 in0.0 mm 0.00 in0.0 mm
10:12 AM 46.7°F8.2°C 28.6°F-1.9°C 49% 9.0 mph W14.5 kmh W 22.0 mph35.4 kmh 29.50 in999.0 mb 0.00 in0.0 mm 0.00 in0.0 mm 0.00 in0.0 mm
10:14 AM 46.7°F8.2°C 28.1°F-2.2°C 48% 10.0 mph SW16.1 kmh SW 17.0 mph27.4 kmh 29.50 in999.0 mb 0.00 in0.0 mm 0.00 in0.0 mm 0.00 in0.0 mm
10:16 AM 46.7°F8.2°C 28.1°F-2.2°C 48% 6.0 mph WSW9.7 kmh WSW 20.0 mph32.2 kmh 29.50 in999.0 mb 0.00 in0.0 mm 0.00 in0.0 mm 0.00 in0.0 mm
10:18 AM 46.5°F8.1°C 27.9°F-2.3°C 48% 5.0 mph WSW8.0 kmh WSW 15.0 mph24.1 kmh 29.51 in999.3 mb 0.00 in0.0 mm 0.00 in0.0 mm 0.00 in0.0 mm
10:20 AM 46.5°F8.1°C 27.9°F-2.3°C 48% 10.0 mph SW16.1 kmh SW 16.0 mph25.7 kmh 29.51 in999.3 mb 0.00 in0.0 mm 0.00 in0.0 mm 0.00 in0.0 mm
10:22 AM 46.4°F8.0°C 28.3°F-2.1°C 49% 4.0 mph SW6.4 kmh SW 20.0 mph32.2 kmh 29.51 in999.3 mb 0.00 in0.0 mm 0.00 in0.0 mm 0.00 in0.0 mm
10:24 AM 46.3°F7.9°C 27.7°F-2.4°C 48% 5.0 mph SW8.0 kmh SW 15.0 mph24.1 kmh 29.51 in999.3 mb 0.00 in0.0 mm 0.00 in0.0 mm 0.00 in0.0 mm
10:26 AM 46.2°F7.9°C 27.6°F-2.4°C 48% 4.0 mph W6.4 kmh W 12.0 mph19.3 kmh 29.51 in999.3 mb 0.00 in0.0 mm 0.00 in0.0 mm 0.00 in0.0 mm
10:28 AM 46.1°F7.8°C 28.0°F-2.2°C 49% 6.0 mph NW9.7 kmh NW 10.0 mph16.1 kmh 29.51 in999.3 mb 0.00 in0.0 mm 0.00 in0.0 mm 0.00 in0.0 mm
10:30 AM 46.0°F7.8°C 26.9°F-2.8°C 47% 10.0 mph NW16.1 kmh NW 14.0 mph22.5 kmh 29.52 in999.7 mb 0.00 in0.0 mm 0.00 in0.0 mm 0.00 in0.0 mm
10:32 AM 45.9°F7.7°C 26.8°F-2.9°C 47% 6.0 mph W9.7 kmh W 7.0 mph11.3 kmh 29.52 in999.7 mb 0.00 in0.0 mm 0.00 in0.0 mm 0.00 in0.0 mm
10:34 AM 45.9°F7.7°C 27.3°F-2.6°C 48% 3.0 mph SW4.8 kmh SW 7.0 mph11.3 kmh 29.52 in999.7 mb 0.00 in0.0 mm 0.00 in0.0 mm 0.00 in0.0 mm
10:36 AM 45.9°F7.7°C 26.8°F-2.9°C 47% 12.0 mph S19.3 kmh S 12.0 mph19.3 kmh 29.52 in999.7 mb 0.00 in0.0 mm 0.00 in0.0 mm 0.00 in0.0 mm
10:38 AM 45.9°F7.7°C 26.8°F-2.9°C 47% 11.0 mph W17.7 kmh W 11.0 mph17.7 kmh 29.52 in999.7 mb 0.00 in0.0 mm 0.00 in0.0 mm 0.00 in0.0 mm
10:40 AM 45.9°F7.7°C 26.8°F-2.9°C 47% 10.0 mph NW16.1 kmh NW 10.0 mph16.1 kmh 29.52 in999.7 mb 0.00 in0.0 mm 0.00 in0.0 mm 0.00 in0.0 mm
10:42 AM 45.8°F7.7°C 25.7°F-3.5°C 45% 20.0 mph NNW32.2 kmh NNW 20.0 mph32.2 kmh 29.52 in999.7 mb 0.00 in0.0 mm 0.00 in0.0 mm 0.00 in0.0 mm
10:44 AM 45.8°F7.7°C 25.1°F-3.8°C 44% 10.0 mph WSW16.1 kmh WSW 10.0 mph16.1 kmh 29.53 in1000.0 mb 0.00 in0.0 mm 0.00 in0.0 mm 0.00 in0.0 mm
10:46 AM 45.6°F7.6°C 25.5°F-3.6°C 45% 5.0 mph NW8.0 kmh NW 9.0 mph14.5 kmh 29.53 in1000.0 mb 0.00 in0.0 mm 0.00 in0.0 mm 0.00 in0.0 mm
10:48 AM 45.5°F7.5°C 25.9°F-3.4°C 46% 9.0 mph NW14.5 kmh NW 9.0 mph14.5 kmh 29.53 in1000.0 mb 0.00 in0.0 mm 0.00 in0.0 mm 0.00 in0.0 mm
10:50 AM 45.5°F7.5°C 26.5°F-3.1°C 47% 14.0 mph WSW22.5 kmh WSW 14.0 mph22.5 kmh 29.53 in1000.0 mb 0.00 in0.0 mm 0.00 in0.0 mm 0.00 in0.0 mm
10:52 AM 45.6°F7.6°C 26.0°F-3.3°C 46% 20.0 mph WSW32.2 kmh WSW 20.0 mph32.2 kmh 29.53 in1000.0 mb 0.00 in0.0 mm 0.00 in0.0 mm 0.00 in0.0 mm
10:54 AM 45.6°F7.6°C 25.0°F-3.9°C 44% 10.0 mph SW16.1 kmh SW 16.0 mph25.7 kmh 29.53 in1000.0 mb 0.00 in0.0 mm 0.00 in0.0 mm 0.00 in0.0 mm
10:56 AM 45.6°F7.6°C 25.0°F-3.9°C 44% 22.0 mph WNW35.4 kmh WNW 22.0 mph35.4 kmh 29.53 in1000.0 mb 0.00 in0.0 mm 0.00 in0.0 mm 0.00 in0.0 mm
10:58 AM 45.5°F7.5°C 24.9°F-3.9°C 44% 2.0 mph SW3.2 kmh SW 3.0 mph4.8 kmh 29.53 in1000.0 mb 0.00 in0.0 mm 0.00 in0.0 mm 0.00 in0.0 mm
11:00 AM 45.5°F7.5°C 25.9°F-3.4°C 46% 13.0 mph NW20.9 kmh NW 13.0 mph20.9 kmh 29.53 in1000.0 mb 0.00 in0.0 mm 0.00 in0.0 mm 0.00 in0.0 mm
11:02 AM 45.5°F7.5°C 25.9°F-3.4°C 46% 9.0 mph WSW14.5 kmh WSW 10.0 mph16.1 kmh 29.54 in1000.3 mb 0.00 in0.0 mm 0.00 in0.0 mm 0.00 in0.0 mm
11:04 AM 45.6°F7.6°C 25.5°F-3.6°C 45% 5.0 mph WNW8.0 kmh WNW 7.0 mph11.3 kmh 29.54 in1000.3 mb 0.00 in0.0 mm 0.00 in0.0 mm 0.00 in0.0 mm
11:06 AM 45.8°F7.7°C 26.7°F-2.9°C 47% 9.0 mph NW14.5 kmh NW 9.0 mph14.5 kmh 29.54 in1000.3 mb 0.00 in0.0 mm 0.00 in0.0 mm 0.00 in0.0 mm
11:08 AM 45.9°F7.7°C 25.8°F-3.4°C 45% 18.0 mph W29.0 kmh W 18.0 mph29.0 kmh 29.55 in1000.7 mb 0.00 in0.0 mm 0.00 in0.0 mm 0.00 in0.0 mm
11:10 AM 46.0°F7.8°C 24.8°F-4.0°C 43% 15.0 mph WSW24.1 kmh WSW 15.0 mph24.1 kmh 29.55 in1000.7 mb 0.00 in0.0 mm 0.00 in0.0 mm 0.00 in0.0 mm
11:12 AM 45.8°F7.7°C 23.5°F-4.7°C 41% 7.0 mph WSW11.3 kmh WSW 9.0 mph14.5 kmh 29.55 in1000.7 mb 0.00 in0.0 mm 0.00 in0.0 mm 0.00 in0.0 mm
11:14 AM 45.7°F7.6°C 24.5°F-4.2°C 43% 14.0 mph WNW22.5 kmh WNW 14.0 mph22.5 kmh 29.55 in1000.7 mb 0.00 in0.0 mm 0.00 in0.0 mm 0.00 in0.0 mm
11:16 AM 45.6°F7.6°C 23.9°F-4.5°C 42% 10.0 mph NNW16.1 kmh NNW 24.0 mph38.6 kmh 29.55 in1000.7 mb 0.00 in0.0 mm 0.00 in0.0 mm 0.00 in0.0 mm
11:18 AM 45.5°F7.5°C 23.2°F-4.9°C 41% 11.0 mph WNW17.7 kmh WNW 18.0 mph29.0 kmh 29.55 in1000.7 mb 0.00 in0.0 mm 0.00 in0.0 mm 0.00 in0.0 mm
11:20 AM 45.3°F7.4°C 22.4°F-5.3°C 40% 10.0 mph W16.1 kmh W 11.0 mph17.7 kmh 29.55 in1000.7 mb 0.00 in0.0 mm 0.00 in0.0 mm 0.00 in0.0 mm
11:22 AM 45.1°F7.3°C 22.8°F-5.1°C 41% 18.0 mph NW29.0 kmh NW 18.0 mph29.0 kmh 29.55 in1000.7 mb 0.00 in0.0 mm 0.00 in0.0 mm 0.00 in0.0 mm
11:24 AM 45.0°F7.2°C 23.3°F-4.8°C 42% 16.0 mph W25.7 kmh W 16.0 mph25.7 kmh 29.56 in1001.0 mb 0.00 in0.0 mm 0.00 in0.0 mm 0.00 in0.0 mm
11:26 AM 44.9°F7.2°C 22.6°F-5.2°C 41% 15.0 mph W24.1 kmh W 25.0 mph40.2 kmh 29.56 in1001.0 mb 0.00 in0.0 mm 0.00 in0.0 mm 0.00 in0.0 mm
11:28 AM 44.8°F7.1°C 22.0°F-5.6°C 40% 17.0 mph WNW27.4 kmh WNW 26.0 mph41.8 kmh 29.56 in1001.0 mb 0.00 in0.0 mm 0.00 in0.0 mm 0.00 in0.0 mm
11:30 AM 44.6°F7.0°C 21.8°F-5.7°C 40% 17.0 mph NW27.4 kmh NW 22.0 mph35.4 kmh 29.56 in1001.0 mb 0.00 in0.0 mm 0.00 in0.0 mm 0.00 in0.0 mm
11:32 AM 44.4°F6.9°C 22.2°F-5.4°C 41% 14.0 mph W22.5 kmh W 14.0 mph22.5 kmh 29.56 in1001.0 mb 0.00 in0.0 mm 0.00 in0.0 mm 0.00 in0.0 mm
11:34 AM 44.4°F6.9°C 22.2°F-5.4°C 41% 15.0 mph W24.1 kmh W 15.0 mph24.1 kmh 29.57 in1001.4 mb 0.00 in0.0 mm 0.00 in0.0 mm 0.00 in0.0 mm
11:36 AM 44.4°F6.9°C 22.2°F-5.4°C 41% 14.0 mph SW22.5 kmh SW 21.0 mph33.8 kmh 29.57 in1001.4 mb 0.00 in0.0 mm 0.00 in0.0 mm 0.00 in0.0 mm
11:38 AM 44.3°F6.8°C 22.1°F-5.5°C 41% 15.0 mph WSW24.1 kmh WSW 15.0 mph24.1 kmh 29.57 in1001.4 mb 0.00 in0.0 mm 0.00 in0.0 mm 0.00 in0.0 mm
11:40 AM 44.3°F6.8°C 22.1°F-5.5°C 41% 13.0 mph W20.9 kmh W 13.0 mph20.9 kmh 29.57 in1001.4 mb 0.00 in0.0 mm 0.00 in0.0 mm 0.00 in0.0 mm
11:42 AM 44.3°F6.8°C 22.1°F-5.5°C 41% 10.0 mph WSW16.1 kmh WSW 14.0 mph22.5 kmh 29.58 in1001.7 mb 0.00 in0.0 mm 0.00 in0.0 mm 0.00 in0.0 mm
11:44 AM 44.3°F6.8°C 22.1°F-5.5°C 41% 14.0 mph WNW22.5 kmh WNW 22.0 mph35.4 kmh 29.57 in1001.4 mb 0.00 in0.0 mm 0.00 in0.0 mm 0.00 in0.0 mm
11:46 AM 44.3°F6.8°C 22.1°F-5.5°C 41% 14.0 mph WNW22.5 kmh WNW 18.0 mph29.0 kmh 29.58 in1001.7 mb 0.00 in0.0 mm 0.00 in0.0 mm 0.00 in0.0 mm
11:48 AM 44.2°F6.8°C 22.0°F-5.6°C 41% 13.0 mph NW20.9 kmh NW 26.0 mph41.8 kmh 29.58 in1001.7 mb 0.00 in0.0 mm 0.00 in0.0 mm 0.00 in0.0 mm
11:50 AM 44.1°F6.7°C 21.9°F-5.6°C 41% 15.0 mph WNW24.1 kmh WNW 16.0 mph25.7 kmh 29.58 in1001.7 mb 0.00 in0.0 mm 0.00 in0.0 mm 0.00 in0.0 mm
11:52 AM 44.1°F6.7°C 21.9°F-5.6°C 41% 10.0 mph WNW16.1 kmh WNW 10.0 mph16.1 kmh 29.58 in1001.7 mb 0.00 in0.0 mm 0.00 in0.0 mm 0.00 in0.0 mm
11:54 AM 44.1°F6.7°C 23.1°F-4.9°C 43% 22.0 mph NW35.4 kmh NW 22.0 mph35.4 kmh 29.58 in1001.7 mb 0.00 in0.0 mm 0.00 in0.0 mm 0.00 in0.0 mm
11:56 AM 44.0°F6.7°C 21.8°F-5.7°C 41% 12.0 mph NW19.3 kmh NW 17.0 mph27.4 kmh 29.58 in1001.7 mb 0.00 in0.0 mm 0.00 in0.0 mm 0.00 in0.0 mm
11:58 AM 44.0°F6.7°C 21.8°F-5.7°C 41% 24.0 mph W38.6 kmh W 24.0 mph38.6 kmh 29.58 in1001.7 mb 0.00 in0.0 mm 0.00 in0.0 mm 0.00 in0.0 mm
12:00 PM 44.1°F6.7°C 22.5°F-5.3°C 42% 10.0 mph NNW16.1 kmh NNW 19.0 mph30.6 kmh 29.59 in1002.0 mb 0.00 in0.0 mm 0.00 in0.0 mm 0.00 in0.0 mm
12:02 PM 44.0°F6.7°C 21.3°F-5.9°C 40% 10.0 mph N16.1 kmh N 25.0 mph40.2 kmh 29.59 in1002.0 mb 0.00 in0.0 mm 0.00 in0.0 mm 0.00 in0.0 mm
12:04 PM 44.0°F6.7°C 21.3°F-5.9°C 40% 12.0 mph NW19.3 kmh NW 25.0 mph40.2 kmh 29.59 in1002.0 mb 0.00 in0.0 mm 0.00 in0.0 mm 0.00 in0.0 mm
12:06 PM 43.8°F6.6°C 21.7°F-5.7°C 41% 17.0 mph W27.4 kmh W 27.0 mph43.5 kmh 29.60 in1002.4 mb 0.00 in0.0 mm 0.00 in0.0 mm 0.00 in0.0 mm
12:08 PM 43.8°F6.6°C 21.7°F-5.7°C 41% 17.0 mph W27.4 kmh W 24.0 mph38.6 kmh 29.60 in1002.4 mb 0.00 in0.0 mm 0.00 in0.0 mm 0.00 in0.0 mm
12:10 PM 43.8°F6.6°C 21.7°F-5.7°C 41% 16.0 mph WSW25.7 kmh WSW 27.0 mph43.5 kmh 29.60 in1002.4 mb 0.00 in0.0 mm 0.00 in0.0 mm 0.00 in0.0 mm
12:12 PM 43.8°F6.6°C 21.1°F-6.1°C 40% 19.0 mph NW30.6 kmh NW 23.0 mph37.0 kmh 29.60 in1002.4 mb 0.00 in0.0 mm 0.00 in0.0 mm 0.00 in0.0 mm
12:14 PM 43.7°F6.5°C 21.0°F-6.1°C 40% 15.0 mph WNW24.1 kmh WNW 17.0 mph27.4 kmh 29.60 in1002.4 mb 0.00 in0.0 mm 0.00 in0.0 mm 0.00 in0.0 mm
12:16 PM 43.6°F6.4°C 20.9°F-6.2°C 40% 14.0 mph WSW22.5 kmh WSW 17.0 mph27.4 kmh 29.60 in1002.4 mb 0.00 in0.0 mm 0.00 in0.0 mm 0.00 in0.0 mm
12:18 PM 43.6°F6.4°C 21.5°F-5.8°C 41% 22.0 mph NW35.4 kmh NW 22.0 mph35.4 kmh 29.60 in1002.4 mb 0.00 in0.0 mm 0.00 in0.0 mm 0.00 in0.0 mm
12:20 PM 43.7°F6.5°C 21.6°F-5.8°C 41% 16.0 mph WNW25.7 kmh WNW 16.0 mph25.7 kmh 29.61 in1002.7 mb 0.00 in0.0 mm 0.00 in0.0 mm 0.00 in0.0 mm
12:22 PM 43.7°F6.5°C 21.0°F-6.1°C 40% 13.0 mph NW20.9 kmh NW 22.0 mph35.4 kmh 29.60 in1002.4 mb 0.00 in0.0 mm 0.00 in0.0 mm 0.00 in0.0 mm
12:24 PM 43.5°F6.4°C 20.8°F-6.2°C 40% 6.0 mph W9.7 kmh W 16.0 mph25.7 kmh 29.60 in1002.4 mb 0.00 in0.0 mm 0.00 in0.0 mm 0.00 in0.0 mm
12:26 PM 43.4°F6.3°C 21.3°F-5.9°C 41% 12.0 mph NW19.3 kmh NW 17.0 mph27.4 kmh 29.61 in1002.7 mb 0.00 in0.0 mm 0.00 in0.0 mm 0.00 in0.0 mm
12:28 PM 43.4°F6.3°C 20.7°F-6.3°C 40% 26.0 mph NW41.8 kmh NW 26.0 mph41.8 kmh 29.61 in1002.7 mb 0.00 in0.0 mm 0.00 in0.0 mm 0.00 in0.0 mm
12:30 PM 43.2°F6.2°C 20.5°F-6.4°C 40% 15.0 mph W24.1 kmh W 21.0 mph33.8 kmh 29.61 in1002.7 mb 0.00 in0.0 mm 0.00 in0.0 mm 0.00 in0.0 mm
12:32 PM 43.2°F6.2°C 21.1°F-6.1°C 41% 14.0 mph NW22.5 kmh NW 16.0 mph25.7 kmh 29.61 in1002.7 mb 0.00 in0.0 mm 0.00 in0.0 mm 0.00 in0.0 mm
12:34 PM 43.2°F6.2°C 21.1°F-6.1°C 41% 11.0 mph W17.7 kmh W 22.0 mph35.4 kmh 29.62 in1003.0 mb 0.00 in0.0 mm 0.00 in0.0 mm 0.00 in0.0 mm
12:36 PM 43.2°F6.2°C 21.1°F-6.1°C 41% 9.0 mph WSW14.5 kmh WSW 13.0 mph20.9 kmh 29.62 in1003.0 mb 0.00 in0.0 mm 0.00 in0.0 mm 0.00 in0.0 mm
12:38 PM 43.1°F6.2°C 21.0°F-6.1°C 41% 19.0 mph WSW30.6 kmh WSW 19.0 mph30.6 kmh 29.62 in1003.0 mb 0.00 in0.0 mm 0.00 in0.0 mm 0.00 in0.0 mm
12:40 PM 43.1°F6.2°C 21.0°F-6.1°C 41% 18.0 mph W29.0 kmh W 19.0 mph30.6 kmh 29.63 in1003.4 mb 0.00 in0.0 mm 0.00 in0.0 mm 0.00 in0.0 mm
12:42 PM 43.1°F6.2°C 21.0°F-6.1°C 41% 10.0 mph NW16.1 kmh NW 10.0 mph16.1 kmh 29.62 in1003.0 mb 0.00 in0.0 mm 0.00 in0.0 mm 0.00 in0.0 mm
12:44 PM 43.1°F6.2°C 21.6°F-5.8°C 42% 10.0 mph NW16.1 kmh NW 13.0 mph20.9 kmh 29.63 in1003.4 mb 0.00 in0.0 mm 0.00 in0.0 mm 0.00 in0.0 mm
12:46 PM 43.1°F6.2°C 21.6°F-5.8°C 42% 9.0 mph WNW14.5 kmh WNW 15.0 mph24.1 kmh 29.62 in1003.0 mb 0.00 in0.0 mm 0.00 in0.0 mm 0.00 in0.0 mm
12:48 PM 43.2°F6.2°C 21.7°F-5.7°C 42% 7.0 mph WSW11.3 kmh WSW 11.0 mph17.7 kmh 29.63 in1003.4 mb 0.00 in0.0 mm 0.00 in0.0 mm 0.00 in0.0 mm
12:50 PM 43.3°F6.3°C 21.2°F-6.0°C 41% 10.0 mph SW16.1 kmh SW 18.0 mph29.0 kmh 29.63 in1003.4 mb 0.00 in0.0 mm 0.00 in0.0 mm 0.00 in0.0 mm
12:52 PM 43.3°F6.3°C 20.6°F-6.3°C 40% 13.0 mph WNW20.9 kmh WNW 16.0 mph25.7 kmh 29.63 in1003.4 mb 0.00 in0.0 mm 0.00 in0.0 mm 0.00 in0.0 mm
12:54 PM 43.2°F6.2°C 21.1°F-6.1°C 41% 23.0 mph NW37.0 kmh NW 23.0 mph37.0 kmh 29.63 in1003.4 mb 0.00 in0.0 mm 0.00 in0.0 mm 0.00 in0.0 mm
12:56 PM 43.1°F6.2°C 21.0°F-6.1°C 41% 7.0 mph WSW11.3 kmh WSW 9.0 mph14.5 kmh 29.63 in1003.4 mb 0.00 in0.0 mm 0.00 in0.0 mm 0.00 in0.0 mm
12:58 PM 43.1°F6.2°C 21.0°F-6.1°C 41% 6.0 mph WNW9.7 kmh WNW 11.0 mph17.7 kmh 29.63 in1003.4 mb 0.00 in0.0 mm 0.00 in0.0 mm 0.00 in0.0 mm
01:00 PM 43.2°F6.2°C 21.1°F-6.1°C 41% 9.0 mph WNW14.5 kmh WNW 9.0 mph14.5 kmh 29.64 in1003.7 mb 0.00 in0.0 mm 0.00 in0.0 mm 0.00 in0.0 mm
01:02 PM 43.2°F6.2°C 21.7°F-5.7°C 42% 14.0 mph W22.5 kmh W 14.0 mph22.5 kmh 29.64 in1003.7 mb 0.00 in0.0 mm 0.00 in0.0 mm 0.00 in0.0 mm
01:04 PM 43.3°F6.3°C 21.2°F-6.0°C 41% 13.0 mph W20.9 kmh W 13.0 mph20.9 kmh 29.64 in1003.7 mb 0.00 in0.0 mm 0.00 in0.0 mm 0.00 in0.0 mm
01:06 PM 43.3°F6.3°C 21.2°F-6.0°C 41% 14.0 mph WSW22.5 kmh WSW 14.0 mph22.5 kmh 29.65 in1004.1 mb 0.00 in0.0 mm 0.00 in0.0 mm 0.00 in0.0 mm
01:08 PM 43.3°F6.3°C 20.6°F-6.3°C 40% 5.0 mph SW8.0 kmh SW 6.0 mph9.7 kmh 29.64 in1003.7 mb 0.00 in0.0 mm 0.00 in0.0 mm 0.00 in0.0 mm
01:10 PM 43.3°F6.3°C 21.8°F-5.7°C 42% 6.0 mph NW9.7 kmh NW 12.0 mph19.3 kmh 29.65 in1004.1 mb 0.00 in0.0 mm 0.00 in0.0 mm 0.00 in0.0 mm
01:12 PM 43.3°F6.3°C 21.8°F-5.7°C 42% 3.0 mph WSW4.8 kmh WSW 9.0 mph14.5 kmh 29.65 in1004.1 mb 0.00 in0.0 mm 0.00 in0.0 mm 0.00 in0.0 mm
01:14 PM 43.3°F6.3°C 21.2°F-6.0°C 41% 6.0 mph W9.7 kmh W 9.0 mph14.5 kmh 29.65 in1004.1 mb 0.00 in0.0 mm 0.00 in0.0 mm 0.00 in0.0 mm
01:16 PM 43.3°F6.3°C 21.8°F-5.7°C 42% 12.0 mph WNW19.3 kmh WNW 15.0 mph24.1 kmh 29.65 in1004.1 mb 0.00 in0.0 mm 0.00 in0.0 mm 0.00 in0.0 mm
01:18 PM 43.4°F6.3°C 21.3°F-5.9°C 41% 5.0 mph WNW8.0 kmh WNW 8.0 mph12.9 kmh 29.65 in1004.1 mb 0.00 in0.0 mm 0.00 in0.0 mm 0.00 in0.0 mm
01:20 PM 43.5°F6.4°C 23.1°F-4.9°C 44% 14.0 mph W22.5 kmh W 14.0 mph22.5 kmh 29.65 in1004.1 mb 0.00 in0.0 mm 0.00 in0.0 mm 0.00 in0.0 mm
01:22 PM 43.6°F6.4°C 21.5°F-5.8°C 41% 4.0 mph WSW6.4 kmh WSW 6.0 mph9.7 kmh 29.65 in1004.1 mb 0.00 in0.0 mm 0.00 in0.0 mm 0.00 in0.0 mm
01:24 PM 43.6°F6.4°C 22.0°F-5.6°C 42% 16.0 mph W25.7 kmh W 16.0 mph25.7 kmh 29.65 in1004.1 mb 0.00 in0.0 mm 0.00 in0.0 mm 0.00 in0.0 mm
01:26 PM 43.6°F6.4°C 21.5°F-5.8°C 41% 14.0 mph SW22.5 kmh SW 15.0 mph24.1 kmh 29.65 in1004.1 mb 0.00 in0.0 mm 0.00 in0.0 mm 0.00 in0.0 mm
01:28 PM 43.6°F6.4°C 22.0°F-5.6°C 42% 6.0 mph W9.7 kmh W 6.0 mph9.7 kmh 29.65 in1004.1 mb 0.00 in0.0 mm 0.00 in0.0 mm 0.00 in0.0 mm
01:30 PM 43.7°F6.5°C 22.1°F-5.5°C 42% 5.0 mph WSW8.0 kmh WSW 17.0 mph27.4 kmh 29.66 in1004.4 mb 0.00 in0.0 mm 0.00 in0.0 mm 0.00 in0.0 mm
01:32 PM 43.7°F6.5°C 21.6°F-5.8°C 41% 6.0 mph SW9.7 kmh SW 6.0 mph9.7 kmh 29.65 in1004.1 mb 0.00 in0.0 mm 0.00 in0.0 mm 0.00 in0.0 mm
01:34 PM 43.7°F6.5°C 22.1°F-5.5°C 42% 12.0 mph NNW19.3 kmh NNW 14.0 mph22.5 kmh 29.66 in1004.4 mb 0.00 in0.0 mm 0.00 in0.0 mm 0.00 in0.0 mm
01:36 PM 43.8°F6.6°C 21.7°F-5.7°C 41% 12.0 mph NNW19.3 kmh NNW 22.0 mph35.4 kmh 29.66 in1004.4 mb 0.00 in0.0 mm 0.00 in0.0 mm 0.00 in0.0 mm
01:38 PM 43.7°F6.5°C 21.6°F-5.8°C 41% 25.0 mph NW40.2 kmh NW 28.0 mph45.1 kmh 29.66 in1004.4 mb 0.00 in0.0 mm 0.00 in0.0 mm 0.00 in0.0 mm
01:40 PM 43.6°F6.4°C 20.9°F-6.2°C 40% 14.0 mph W22.5 kmh W 14.0 mph22.5 kmh 29.67 in1004.7 mb 0.00 in0.0 mm 0.00 in0.0 mm 0.00 in0.0 mm
01:42 PM 43.4°F6.3°C 20.7°F-6.3°C 40% 22.0 mph WNW35.4 kmh WNW 22.0 mph35.4 kmh 29.67 in1004.7 mb 0.00 in0.0 mm 0.00 in0.0 mm 0.00 in0.0 mm
01:44 PM 43.2°F6.2°C 21.1°F-6.1°C 41% 13.0 mph NW20.9 kmh NW 18.0 mph29.0 kmh 29.67 in1004.7 mb 0.00 in0.0 mm 0.00 in0.0 mm 0.00 in0.0 mm
01:46 PM 43.1°F6.2°C 20.4°F-6.4°C 40% 19.0 mph SW30.6 kmh SW 19.0 mph30.6 kmh 29.67 in1004.7 mb 0.00 in0.0 mm 0.00 in0.0 mm 0.00 in0.0 mm
01:48 PM 43.0°F6.1°C 20.4°F-6.4°C 40% 5.0 mph NW8.0 kmh NW 17.0 mph27.4 kmh 29.67 in1004.7 mb 0.00 in0.0 mm 0.00 in0.0 mm 0.00 in0.0 mm
01:50 PM 43.0°F6.1°C 20.9°F-6.2°C 41% 13.0 mph N20.9 kmh N 13.0 mph20.9 kmh 29.66 in1004.4 mb 0.00 in0.0 mm 0.00 in0.0 mm 0.00 in0.0 mm
01:52 PM 43.0°F6.1°C 20.9°F-6.2°C 41% 5.0 mph W8.0 kmh W 10.0 mph16.1 kmh 29.67 in1004.7 mb 0.00 in0.0 mm 0.00 in0.0 mm 0.00 in0.0 mm
01:54 PM 43.1°F6.2°C 21.0°F-6.1°C 41% 18.0 mph NW29.0 kmh NW 18.0 mph29.0 kmh 29.67 in1004.7 mb 0.00 in0.0 mm 0.00 in0.0 mm 0.00 in0.0 mm
01:56 PM 43.3°F6.3°C 22.3°F-5.4°C 43% 11.0 mph NW17.7 kmh NW 11.0 mph17.7 kmh 29.67 in1004.7 mb 0.00 in0.0 mm 0.00 in0.0 mm 0.00 in0.0 mm
01:58 PM 43.5°F6.4°C 21.4°F-5.9°C 41% 19.0 mph W30.6 kmh W 26.0 mph41.8 kmh 29.67 in1004.7 mb 0.00 in0.0 mm 0.00 in0.0 mm 0.00 in0.0 mm
02:00 PM 43.6°F6.4°C 21.5°F-5.8°C 41% 11.0 mph WNW17.7 kmh WNW 14.0 mph22.5 kmh 29.67 in1004.7 mb 0.00 in0.0 mm 0.00 in0.0 mm 0.00 in0.0 mm
02:02 PM 43.5°F6.4°C 21.4°F-5.9°C 41% 13.0 mph W20.9 kmh W 14.0 mph22.5 kmh 29.67 in1004.7 mb 0.00 in0.0 mm 0.00 in0.0 mm 0.00 in0.0 mm
02:04 PM 43.4°F6.3°C 20.7°F-6.3°C 40% 13.0 mph NW20.9 kmh NW 18.0 mph29.0 kmh 29.67 in1004.7 mb 0.00 in0.0 mm 0.00 in0.0 mm 0.00 in0.0 mm
02:06 PM 43.4°F6.3°C 21.3°F-5.9°C 41% 11.0 mph WNW17.7 kmh WNW 21.0 mph33.8 kmh 29.68 in1005.1 mb 0.00 in0.0 mm 0.00 in0.0 mm 0.00 in0.0 mm
02:08 PM 43.4°F6.3°C 21.3°F-5.9°C 41% 21.0 mph WNW33.8 kmh WNW 22.0 mph35.4 kmh 29.68 in1005.1 mb 0.00 in0.0 mm 0.00 in0.0 mm 0.00 in0.0 mm
02:10 PM 43.4°F6.3°C 20.7°F-6.3°C 40% 18.0 mph WNW29.0 kmh WNW 18.0 mph29.0 kmh 29.68 in1005.1 mb 0.00 in0.0 mm 0.00 in0.0 mm 0.00 in0.0 mm
02:12 PM 43.3°F6.3°C 21.2°F-6.0°C 41% 14.0 mph WNW22.5 kmh WNW 17.0 mph27.4 kmh 29.68 in1005.1 mb 0.00 in0.0 mm 0.00 in0.0 mm 0.00 in0.0 mm
02:14 PM 43.3°F6.3°C 21.2°F-6.0°C 41% 3.0 mph WNW4.8 kmh WNW 5.0 mph8.0 kmh 29.68 in1005.1 mb 0.00 in0.0 mm 0.00 in0.0 mm 0.00 in0.0 mm
02:16 PM 43.3°F6.3°C 21.2°F-6.0°C 41% 11.0 mph WNW17.7 kmh WNW 11.0 mph17.7 kmh 29.68 in1005.1 mb 0.00 in0.0 mm 0.00 in0.0 mm 0.00 in0.0 mm
02:18 PM 43.2°F6.2°C 20.5°F-6.4°C 40% 12.0 mph NW19.3 kmh NW 15.0 mph24.1 kmh 29.69 in1005.4 mb 0.00 in0.0 mm 0.00 in0.0 mm 0.00 in0.0 mm
02:20 PM 43.1°F6.2°C 21.0°F-6.1°C 41% 27.0 mph WSW43.5 kmh WSW 27.0 mph43.5 kmh 29.68 in1005.1 mb 0.00 in0.0 mm 0.00 in0.0 mm 0.00 in0.0 mm
02:22 PM 43.0°F6.1°C 20.4°F-6.4°C 40% 9.0 mph W14.5 kmh W 13.0 mph20.9 kmh 29.69 in1005.4 mb 0.00 in0.0 mm 0.00 in0.0 mm 0.00 in0.0 mm
02:24 PM 43.0°F6.1°C 21.5°F-5.8°C 42% 17.0 mph WNW27.4 kmh WNW 17.0 mph27.4 kmh 29.69 in1005.4 mb 0.00 in0.0 mm 0.00 in0.0 mm 0.00 in0.0 mm
02:26 PM 43.0°F6.1°C 21.5°F-5.8°C 42% 9.0 mph NW14.5 kmh NW 12.0 mph19.3 kmh 29.69 in1005.4 mb 0.00 in0.0 mm 0.00 in0.0 mm 0.00 in0.0 mm
02:28 PM 43.1°F6.2°C 22.1°F-5.5°C 43% 10.0 mph NW16.1 kmh NW 10.0 mph16.1 kmh 29.69 in1005.4 mb 0.00 in0.0 mm 0.00 in0.0 mm 0.00 in0.0 mm
02:30 PM 43.3°F6.3°C 21.8°F-5.7°C 42% 6.0 mph NW9.7 kmh NW 9.0 mph14.5 kmh 29.70 in1005.8 mb 0.00 in0.0 mm 0.00 in0.0 mm 0.00 in0.0 mm
02:32 PM 43.4°F6.3°C 21.3°F-5.9°C 41% 9.0 mph NNW14.5 kmh NNW 16.0 mph25.7 kmh 29.69 in1005.4 mb 0.00 in0.0 mm 0.00 in0.0 mm 0.00 in0.0 mm
02:34 PM 43.3°F6.3°C 21.2°F-6.0°C 41% 7.0 mph NW11.3 kmh NW 18.0 mph29.0 kmh 29.69 in1005.4 mb 0.00 in0.0 mm 0.00 in0.0 mm 0.00 in0.0 mm
02:36 PM 43.1°F6.2°C 21.0°F-6.1°C 41% 13.0 mph NW20.9 kmh NW 27.0 mph43.5 kmh 29.70 in1005.8 mb 0.00 in0.0 mm 0.00 in0.0 mm 0.00 in0.0 mm
02:38 PM 43.0°F6.1°C 20.4°F-6.4°C 40% 16.0 mph W25.7 kmh W 20.0 mph32.2 kmh 29.69 in1005.4 mb 0.00 in0.0 mm 0.00 in0.0 mm 0.00 in0.0 mm
02:40 PM 42.8°F6.0°C 20.2°F-6.6°C 40% 16.0 mph WNW25.7 kmh WNW 26.0 mph41.8 kmh 29.70 in1005.8 mb 0.00 in0.0 mm 0.00 in0.0 mm 0.00 in0.0 mm
02:42 PM 42.7°F5.9°C 20.1°F-6.6°C 40% 19.0 mph WNW30.6 kmh WNW 24.0 mph38.6 kmh 29.69 in1005.4 mb 0.00 in0.0 mm 0.00 in0.0 mm 0.00 in0.0 mm
02:44 PM 42.6°F5.9°C 20.0°F-6.7°C 40% 7.0 mph NW11.3 kmh NW 19.0 mph30.6 kmh 29.70 in1005.8 mb 0.00 in0.0 mm 0.00 in0.0 mm 0.00 in0.0 mm
02:46 PM 42.6°F5.9°C 21.1°F-6.1°C 42% 15.0 mph W24.1 kmh W 25.0 mph40.2 kmh 29.70 in1005.8 mb 0.00 in0.0 mm 0.00 in0.0 mm 0.00 in0.0 mm
02:48 PM 42.5°F5.8°C 20.5°F-6.4°C 41% 12.0 mph WSW19.3 kmh WSW 25.0 mph40.2 kmh 29.70 in1005.8 mb 0.00 in0.0 mm 0.00 in0.0 mm 0.00 in0.0 mm
02:50 PM 42.3°F5.7°C 20.3°F-6.5°C 41% 17.0 mph NW27.4 kmh NW 18.0 mph29.0 kmh 29.70 in1005.8 mb 0.00 in0.0 mm 0.00 in0.0 mm 0.00 in0.0 mm
02:52 PM 42.1°F5.6°C 20.7°F-6.3°C 42% 6.0 mph N9.7 kmh N 16.0 mph25.7 kmh 29.71 in1006.1 mb 0.00 in0.0 mm 0.00 in0.0 mm 0.00 in0.0 mm
02:54 PM 42.0°F5.6°C 21.1°F-6.1°C 43% 7.0 mph NW11.3 kmh NW 16.0 mph25.7 kmh 29.71 in1006.1 mb 0.00 in0.0 mm 0.00 in0.0 mm 0.00 in0.0 mm
02:56 PM 42.1°F5.6°C 21.2°F-6.0°C 43% 5.0 mph WSW8.0 kmh WSW 18.0 mph29.0 kmh 29.71 in1006.1 mb 0.00 in0.0 mm 0.00 in0.0 mm 0.00 in0.0 mm
02:58 PM 42.2°F5.7°C 20.8°F-6.2°C 42% 24.0 mph NW38.6 kmh NW 24.0 mph38.6 kmh 29.71 in1006.1 mb 0.00 in0.0 mm 0.00 in0.0 mm 0.00 in0.0 mm
03:00 PM 42.2°F5.7°C 20.8°F-6.2°C 42% 6.0 mph NNE9.7 kmh NNE 11.0 mph17.7 kmh 29.71 in1006.1 mb 0.00 in0.0 mm 0.00 in0.0 mm 0.00 in0.0 mm
03:02 PM 42.1°F5.6°C 20.1°F-6.6°C 41% 13.0 mph NW20.9 kmh NW 13.0 mph20.9 kmh 29.72 in1006.4 mb 0.00 in0.0 mm 0.00 in0.0 mm 0.00 in0.0 mm
03:04 PM 42.0°F5.6°C 20.0°F-6.7°C 41% 14.0 mph WNW22.5 kmh WNW 27.0 mph43.5 kmh 29.72 in1006.4 mb 0.00 in0.0 mm 0.00 in0.0 mm 0.00 in0.0 mm
03:06 PM 41.8°F5.4°C 19.8°F-6.8°C 41% 16.0 mph NW25.7 kmh NW 16.0 mph25.7 kmh 29.72 in1006.4 mb 0.00 in0.0 mm 0.00 in0.0 mm 0.00 in0.0 mm
03:08 PM 41.7°F5.4°C 19.8°F-6.8°C 41% 19.0 mph NW30.6 kmh NW 25.0 mph40.2 kmh 29.72 in1006.4 mb 0.00 in0.0 mm 0.00 in0.0 mm 0.00 in0.0 mm
03:10 PM 41.6°F5.3°C 19.7°F-6.8°C 41% 9.0 mph NW14.5 kmh NW 20.0 mph32.2 kmh 29.72 in1006.4 mb 0.00 in0.0 mm 0.00 in0.0 mm 0.00 in0.0 mm
03:12 PM 41.5°F5.3°C 20.1°F-6.6°C 42% 16.0 mph WSW25.7 kmh WSW 19.0 mph30.6 kmh 29.72 in1006.4 mb 0.00 in0.0 mm 0.00 in0.0 mm 0.00 in0.0 mm
03:14 PM 41.5°F5.3°C 20.1°F-6.6°C 42% 19.0 mph WSW30.6 kmh WSW 23.0 mph37.0 kmh 29.72 in1006.4 mb 0.00 in0.0 mm 0.00 in0.0 mm 0.00 in0.0 mm
03:16 PM 41.5°F5.3°C 20.1°F-6.6°C 42% 15.0 mph NNW24.1 kmh NNW 21.0 mph33.8 kmh 29.72 in1006.4 mb 0.00 in0.0 mm 0.00 in0.0 mm 0.00 in0.0 mm
03:18 PM 41.6°F5.3°C 20.2°F-6.6°C 42% 24.0 mph WNW38.6 kmh WNW 24.0 mph38.6 kmh 29.72 in1006.4 mb 0.00 in0.0 mm 0.00 in0.0 mm 0.00 in0.0 mm
03:20 PM 41.5°F5.3°C 19.6°F-6.9°C 41% 14.0 mph NW22.5 kmh NW 19.0 mph30.6 kmh 29.73 in1006.8 mb 0.00 in0.0 mm 0.00 in0.0 mm 0.00 in0.0 mm
03:22 PM 41.6°F5.3°C 20.8°F-6.2°C 43% 25.0 mph WNW40.2 kmh WNW 29.0 mph46.7 kmh 29.73 in1006.8 mb 0.00 in0.0 mm 0.00 in0.0 mm 0.00 in0.0 mm
03:24 PM 41.6°F5.3°C 19.7°F-6.8°C 41% 9.0 mph WNW14.5 kmh WNW 17.0 mph27.4 kmh 29.73 in1006.8 mb 0.00 in0.0 mm 0.00 in0.0 mm 0.00 in0.0 mm
03:26 PM 41.6°F5.3°C 19.7°F-6.8°C 41% 7.0 mph SW11.3 kmh SW 25.0 mph40.2 kmh 29.73 in1006.8 mb 0.00 in0.0 mm 0.00 in0.0 mm 0.00 in0.0 mm
03:28 PM 41.5°F5.3°C 20.1°F-6.6°C 42% 10.0 mph NW16.1 kmh NW 14.0 mph22.5 kmh 29.73 in1006.8 mb 0.00 in0.0 mm 0.00 in0.0 mm 0.00 in0.0 mm
03:30 PM 41.7°F5.4°C 20.3°F-6.5°C 42% 12.0 mph NNW19.3 kmh NNW 16.0 mph25.7 kmh 29.74 in1007.1 mb 0.00 in0.0 mm 0.00 in0.0 mm 0.00 in0.0 mm
03:32 PM 41.8°F5.4°C 20.4°F-6.4°C 42% 14.0 mph NW22.5 kmh NW 14.0 mph22.5 kmh 29.73 in1006.8 mb 0.00 in0.0 mm 0.00 in0.0 mm 0.00 in0.0 mm
03:34 PM 41.8°F5.4°C 19.8°F-6.8°C 41% 10.0 mph WNW16.1 kmh WNW 13.0 mph20.9 kmh 29.73 in1006.8 mb 0.00 in0.0 mm 0.00 in0.0 mm 0.00 in0.0 mm
03:36 PM 41.8°F5.4°C 20.4°F-6.4°C 42% 7.0 mph NW11.3 kmh NW 12.0 mph19.3 kmh 29.73 in1006.8 mb 0.00 in0.0 mm 0.00 in0.0 mm 0.00 in0.0 mm
03:38 PM 41.8°F5.4°C 21.0°F-6.1°C 43% 15.0 mph NW24.1 kmh NW 20.0 mph32.2 kmh 29.73 in1006.8 mb 0.00 in0.0 mm 0.00 in0.0 mm 0.00 in0.0 mm
03:40 PM 41.7°F5.4°C 20.3°F-6.5°C 42% 9.0 mph NNW14.5 kmh NNW 9.0 mph14.5 kmh 29.74 in1007.1 mb 0.00 in0.0 mm 0.00 in0.0 mm 0.00 in0.0 mm
03:42 PM 41.7°F5.4°C 20.3°F-6.5°C 42% 17.0 mph NW27.4 kmh NW 17.0 mph27.4 kmh 29.74 in1007.1 mb 0.00 in0.0 mm 0.00 in0.0 mm 0.00 in0.0 mm
03:44 PM 41.6°F5.3°C 20.2°F-6.6°C 42% 17.0 mph WNW27.4 kmh WNW 19.0 mph30.6 kmh 29.74 in1007.1 mb 0.00 in0.0 mm 0.00 in0.0 mm 0.00 in0.0 mm
03:46 PM 41.4°F5.2°C 19.5°F-6.9°C 41% 30.0 mph W48.3 kmh W 30.0 mph48.3 kmh 29.74 in1007.1 mb 0.00 in0.0 mm 0.00 in0.0 mm 0.00 in0.0 mm
03:48 PM 41.3°F5.2°C 19.4°F-7.0°C 41% 21.0 mph NW33.8 kmh NW 21.0 mph33.8 kmh 29.74 in1007.1 mb 0.00 in0.0 mm 0.00 in0.0 mm 0.00 in0.0 mm
03:50 PM 41.1°F5.1°C 19.8°F-6.8°C 42% 20.0 mph NW32.2 kmh NW 26.0 mph41.8 kmh 29.74 in1007.1 mb 0.00 in0.0 mm 0.00 in0.0 mm 0.00 in0.0 mm
03:52 PM 41.0°F5.0°C 19.7°F-6.8°C 42% 15.0 mph WNW24.1 kmh WNW 15.0 mph24.1 kmh 29.75 in1007.5 mb 0.00 in0.0 mm 0.00 in0.0 mm 0.00 in0.0 mm
03:54 PM 40.9°F4.9°C 19.6°F-6.9°C 42% 24.0 mph WNW38.6 kmh WNW 24.0 mph38.6 kmh 29.74 in1007.1 mb 0.00 in0.0 mm 0.00 in0.0 mm 0.00 in0.0 mm
03:56 PM 40.9°F4.9°C 19.6°F-6.9°C 42% 7.0 mph NW11.3 kmh NW 10.0 mph16.1 kmh 29.75 in1007.5 mb 0.00 in0.0 mm 0.00 in0.0 mm 0.00 in0.0 mm
03:58 PM 40.9°F4.9°C 19.6°F-6.9°C 42% 11.0 mph NW17.7 kmh NW 11.0 mph17.7 kmh 29.75 in1007.5 mb 0.00 in0.0 mm 0.00 in0.0 mm 0.00 in0.0 mm
04:00 PM 40.8°F4.9°C 19.5°F-6.9°C 42% 16.0 mph NW25.7 kmh NW 16.0 mph25.7 kmh 29.75 in1007.5 mb 0.00 in0.0 mm 0.00 in0.0 mm 0.00 in0.0 mm
04:02 PM 40.8°F4.9°C 20.1°F-6.6°C 43% 17.0 mph WNW27.4 kmh WNW 17.0 mph27.4 kmh 29.74 in1007.1 mb 0.00 in0.0 mm 0.00 in0.0 mm 0.00 in0.0 mm
04:04 PM 40.8°F4.9°C 20.1°F-6.6°C 43% 14.0 mph NW22.5 kmh NW 14.0 mph22.5 kmh 29.74 in1007.1 mb 0.00 in0.0 mm 0.00 in0.0 mm 0.00 in0.0 mm
04:06 PM 40.8°F4.9°C 20.1°F-6.6°C 43% 19.0 mph NW30.6 kmh NW 22.0 mph35.4 kmh 29.75 in1007.5 mb 0.00 in0.0 mm 0.00 in0.0 mm 0.00 in0.0 mm
04:08 PM 40.8°F4.9°C 20.1°F-6.6°C 43% 14.0 mph WNW22.5 kmh WNW 14.0 mph22.5 kmh 29.75 in1007.5 mb 0.00 in0.0 mm 0.00 in0.0 mm 0.00 in0.0 mm
04:10 PM 40.7°F4.8°C 20.0°F-6.7°C 43% 17.0 mph WNW27.4 kmh WNW 27.0 mph43.5 kmh 29.75 in1007.5 mb 0.00 in0.0 mm 0.00 in0.0 mm 0.00 in0.0 mm
04:12 PM 40.7°F4.8°C 20.0°F-6.7°C 43% 15.0 mph WNW24.1 kmh WNW 20.0 mph32.2 kmh 29.75 in1007.5 mb 0.00 in0.0 mm 0.00 in0.0 mm 0.00 in0.0 mm
04:14 PM 40.7°F4.8°C 20.0°F-6.7°C 43% 15.0 mph WNW24.1 kmh WNW 15.0 mph24.1 kmh 29.75 in1007.5 mb 0.00 in0.0 mm 0.00 in0.0 mm 0.00 in0.0 mm
04:16 PM 40.7°F4.8°C 20.0°F-6.7°C 43% 15.0 mph WNW24.1 kmh WNW 15.0 mph24.1 kmh 29.75 in1007.5 mb 0.00 in0.0 mm 0.00 in0.0 mm 0.00 in0.0 mm
04:18 PM 40.7°F4.8°C 20.0°F-6.7°C 43% 14.0 mph WNW22.5 kmh WNW 20.0 mph32.2 kmh 29.75 in1007.5 mb 0.00 in0.0 mm 0.00 in0.0 mm 0.00 in0.0 mm
04:20 PM 40.7°F4.8°C 20.0°F-6.7°C 43% 9.0 mph NW14.5 kmh NW 21.0 mph33.8 kmh 29.75 in1007.5 mb 0.00 in0.0 mm 0.00 in0.0 mm 0.00 in0.0 mm
04:22 PM 40.7°F4.8°C 20.0°F-6.7°C 43% 13.0 mph WNW20.9 kmh WNW 18.0 mph29.0 kmh 29.75 in1007.5 mb 0.00 in0.0 mm 0.00 in0.0 mm 0.00 in0.0 mm
04:24 PM 40.7°F4.8°C 20.0°F-6.7°C 43% 6.0 mph WNW9.7 kmh WNW 15.0 mph24.1 kmh 29.76 in1007.8 mb 0.00 in0.0 mm 0.00 in0.0 mm 0.00 in0.0 mm
04:26 PM 40.7°F4.8°C 20.5°F-6.4°C 44% 7.0 mph WSW11.3 kmh WSW 23.0 mph37.0 kmh 29.76 in1007.8 mb 0.00 in0.0 mm 0.00 in0.0 mm 0.00 in0.0 mm
04:28 PM 40.8°F4.9°C 20.1°F-6.6°C 43% 15.0 mph WNW24.1 kmh WNW 23.0 mph37.0 kmh 29.76 in1007.8 mb 0.00 in0.0 mm 0.00 in0.0 mm 0.00 in0.0 mm
04:30 PM 40.8°F4.9°C 20.6°F-6.3°C 44% 10.0 mph WNW16.1 kmh WNW 13.0 mph20.9 kmh 29.76 in1007.8 mb 0.00 in0.0 mm 0.00 in0.0 mm 0.00 in0.0 mm
04:32 PM 40.8°F4.9°C 20.6°F-6.3°C 44% 9.0 mph WNW14.5 kmh WNW 21.0 mph33.8 kmh 29.76 in1007.8 mb 0.00 in0.0 mm 0.00 in0.0 mm 0.00 in0.0 mm
04:34 PM 40.9°F4.9°C 20.7°F-6.3°C 44% 7.0 mph NW11.3 kmh NW 12.0 mph19.3 kmh 29.76 in1007.8 mb 0.00 in0.0 mm 0.00 in0.0 mm 0.00 in0.0 mm
04:36 PM 41.0°F5.0°C 20.8°F-6.2°C 44% 15.0 mph WNW24.1 kmh WNW 18.0 mph29.0 kmh 29.76 in1007.8 mb 0.00 in0.0 mm 0.00 in0.0 mm 0.00 in0.0 mm
04:38 PM 41.1°F5.1°C 20.9°F-6.2°C 44% 9.0 mph NW14.5 kmh NW 9.0 mph14.5 kmh 29.77 in1008.1 mb 0.00 in0.0 mm 0.00 in0.0 mm 0.00 in0.0 mm
04:40 PM 41.0°F5.0°C 20.2°F-6.6°C 43% 6.0 mph WNW9.7 kmh WNW 6.0 mph9.7 kmh 29.77 in1008.1 mb 0.00 in0.0 mm 0.00 in0.0 mm 0.00 in0.0 mm
04:42 PM 41.1°F5.1°C 20.9°F-6.2°C 44% 7.0 mph NW11.3 kmh NW 9.0 mph14.5 kmh 29.77 in1008.1 mb 0.00 in0.0 mm 0.00 in0.0 mm 0.00 in0.0 mm
04:44 PM 41.1°F5.1°C 20.9°F-6.2°C 44% 13.0 mph WNW20.9 kmh WNW 13.0 mph20.9 kmh 29.77 in1008.1 mb 0.00 in0.0 mm 0.00 in0.0 mm 0.00 in0.0 mm
04:46 PM 41.1°F5.1°C 20.3°F-6.5°C 43% 14.0 mph NW22.5 kmh NW 23.0 mph37.0 kmh 29.77 in1008.1 mb 0.00 in0.0 mm 0.00 in0.0 mm 0.00 in0.0 mm
04:48 PM 41.1°F5.1°C 20.3°F-6.5°C 43% 19.0 mph W30.6 kmh W 21.0 mph33.8 kmh 29.77 in1008.1 mb 0.00 in0.0 mm 0.00 in0.0 mm 0.00 in0.0 mm
04:50 PM 41.1°F5.1°C 19.8°F-6.8°C 42% 14.0 mph WNW22.5 kmh WNW 22.0 mph35.4 kmh 29.77 in1008.1 mb 0.00 in0.0 mm 0.00 in0.0 mm 0.00 in0.0 mm
04:52 PM 41.1°F5.1°C 19.8°F-6.8°C 42% 15.0 mph W24.1 kmh W 15.0 mph24.1 kmh 29.78 in1008.5 mb 0.00 in0.0 mm 0.00 in0.0 mm 0.00 in0.0 mm
04:54 PM 41.0°F5.0°C 19.7°F-6.8°C 42% 13.0 mph N20.9 kmh N 24.0 mph38.6 kmh 29.78 in1008.5 mb 0.00 in0.0 mm 0.00 in0.0 mm 0.00 in0.0 mm
04:56 PM 40.9°F4.9°C 18.5°F-7.5°C 40% 7.0 mph NW11.3 kmh NW 26.0 mph41.8 kmh 29.77 in1008.1 mb 0.00 in0.0 mm 0.00 in0.0 mm 0.00 in0.0 mm
04:58 PM 40.9°F4.9°C 18.5°F-7.5°C 40% 14.0 mph WNW22.5 kmh WNW 29.0 mph46.7 kmh 29.78 in1008.5 mb 0.00 in0.0 mm 0.00 in0.0 mm 0.00 in0.0 mm
05:00 PM 40.8°F4.9°C 18.4°F-7.6°C 40% 7.0 mph NW11.3 kmh NW 13.0 mph20.9 kmh 29.78 in1008.5 mb 0.00 in0.0 mm 0.00 in0.0 mm 0.00 in0.0 mm
05:02 PM 40.8°F4.9°C 18.9°F-7.3°C 41% 11.0 mph W17.7 kmh W 18.0 mph29.0 kmh 29.78 in1008.5 mb 0.00 in0.0 mm 0.00 in0.0 mm 0.00 in0.0 mm
05:04 PM 40.9°F4.9°C 19.0°F-7.2°C 41% 10.0 mph NW16.1 kmh NW 10.0 mph16.1 kmh 29.78 in1008.5 mb 0.00 in0.0 mm 0.00 in0.0 mm 0.00 in0.0 mm
05:06 PM 40.9°F4.9°C 19.0°F-7.2°C 41% 6.0 mph NW9.7 kmh NW 13.0 mph20.9 kmh 29.78 in1008.5 mb 0.00 in0.0 mm 0.00 in0.0 mm 0.00 in0.0 mm
05:08 PM 41.0°F5.0°C 19.1°F-7.2°C 41% 13.0 mph WSW20.9 kmh WSW 29.0 mph46.7 kmh 29.79 in1008.8 mb 0.00 in0.0 mm 0.00 in0.0 mm 0.00 in0.0 mm
05:10 PM 41.0°F5.0°C 18.0°F-7.8°C 39% 11.0 mph NW17.7 kmh NW 13.0 mph20.9 kmh 29.78 in1008.5 mb 0.00 in0.0 mm 0.00 in0.0 mm 0.00 in0.0 mm
05:12 PM 41.0°F5.0°C 18.0°F-7.8°C 39% 15.0 mph W24.1 kmh W 20.0 mph32.2 kmh 29.79 in1008.8 mb 0.00 in0.0 mm 0.00 in0.0 mm 0.00 in0.0 mm
05:14 PM 41.0°F5.0°C 18.5°F-7.5°C 40% 6.0 mph W9.7 kmh W 9.0 mph14.5 kmh 29.79 in1008.8 mb 0.00 in0.0 mm 0.00 in0.0 mm 0.00 in0.0 mm
05:16 PM 41.0°F5.0°C 18.5°F-7.5°C 40% 4.0 mph NW6.4 kmh NW 14.0 mph22.5 kmh 29.79 in1008.8 mb 0.00 in0.0 mm 0.00 in0.0 mm 0.00 in0.0 mm
05:18 PM 41.1°F5.1°C 18.1°F-7.7°C 39% 4.0 mph NNW6.4 kmh NNW 8.0 mph12.9 kmh 29.79 in1008.8 mb 0.00 in0.0 mm 0.00 in0.0 mm 0.00 in0.0 mm
05:20 PM 41.0°F5.0°C 18.0°F-7.8°C 39% 17.0 mph WNW27.4 kmh WNW 19.0 mph30.6 kmh 29.79 in1008.8 mb 0.00 in0.0 mm 0.00 in0.0 mm 0.00 in0.0 mm
05:22 PM 41.0°F5.0°C 16.7°F-8.5°C 37% 8.0 mph W12.9 kmh W 16.0 mph25.7 kmh 29.80 in1009.1 mb 0.00 in0.0 mm 0.00 in0.0 mm 0.00 in0.0 mm
05:24 PM 40.9°F4.9°C 16.7°F-8.5°C 37% 7.0 mph NW11.3 kmh NW 14.0 mph22.5 kmh 29.80 in1009.1 mb 0.00 in0.0 mm 0.00 in0.0 mm 0.00 in0.0 mm
05:26 PM 40.8°F4.9°C 15.9°F-8.9°C 36% 9.0 mph NW14.5 kmh NW 16.0 mph25.7 kmh 29.80 in1009.1 mb 0.00 in0.0 mm 0.00 in0.0 mm 0.00 in0.0 mm
05:28 PM 40.7°F4.8°C 15.8°F-9.0°C 36% 11.0 mph W17.7 kmh W 11.0 mph17.7 kmh 29.80 in1009.1 mb 0.00 in0.0 mm 0.00 in0.0 mm 0.00 in0.0 mm
05:30 PM 40.7°F4.8°C 16.5°F-8.6°C 37% 7.0 mph NW11.3 kmh NW 23.0 mph37.0 kmh 29.80 in1009.1 mb 0.00 in0.0 mm 0.00 in0.0 mm 0.00 in0.0 mm
05:32 PM 40.5°F4.7°C 16.3°F-8.7°C 37% 10.0 mph NW16.1 kmh NW 10.0 mph16.1 kmh 29.80 in1009.1 mb 0.00 in0.0 mm 0.00 in0.0 mm 0.00 in0.0 mm
05:34 PM 40.3°F4.6°C 16.7°F-8.5°C 38% 15.0 mph NNW24.1 kmh NNW 15.0 mph24.1 kmh 29.81 in1009.5 mb 0.00 in0.0 mm 0.00 in0.0 mm 0.00 in0.0 mm
05:36 PM 40.2°F4.6°C 16.0°F-8.9°C 37% 11.0 mph WNW17.7 kmh WNW 11.0 mph17.7 kmh 29.81 in1009.5 mb 0.00 in0.0 mm 0.00 in0.0 mm 0.00 in0.0 mm
05:38 PM 40.2°F4.6°C 16.0°F-8.9°C 37% 6.0 mph NW9.7 kmh NW 6.0 mph9.7 kmh 29.81 in1009.5 mb 0.00 in0.0 mm 0.00 in0.0 mm 0.00 in0.0 mm
05:40 PM 40.1°F4.5°C 15.9°F-8.9°C 37% 10.0 mph NW16.1 kmh NW 15.0 mph24.1 kmh 29.81 in1009.5 mb 0.00 in0.0 mm 0.00 in0.0 mm 0.00 in0.0 mm
05:42 PM 40.0°F4.4°C 15.9°F-8.9°C 37% 5.0 mph NW8.0 kmh NW 6.0 mph9.7 kmh 29.81 in1009.5 mb 0.00 in0.0 mm 0.00 in0.0 mm 0.00 in0.0 mm
05:44 PM 39.9°F4.4°C 16.4°F-8.7°C 38% 2.0 mph NW3.2 kmh NW 8.0 mph12.9 kmh 29.81 in1009.5 mb 0.00 in0.0 mm 0.00 in0.0 mm 0.00 in0.0 mm
05:46 PM 39.9°F4.4°C 16.4°F-8.7°C 38% 16.0 mph NNW25.7 kmh NNW 16.0 mph25.7 kmh 29.82 in1009.8 mb 0.00 in0.0 mm 0.00 in0.0 mm 0.00 in0.0 mm
05:48 PM 39.8°F4.3°C 15.7°F-9.1°C 37% 18.0 mph WSW29.0 kmh WSW 18.0 mph29.0 kmh 29.82 in1009.8 mb 0.00 in0.0 mm 0.00 in0.0 mm 0.00 in0.0 mm
05:50 PM 39.8°F4.3°C 15.0°F-9.4°C 36% 14.0 mph W22.5 kmh W 14.0 mph22.5 kmh 29.82 in1009.8 mb 0.00 in0.0 mm 0.00 in0.0 mm 0.00 in0.0 mm
05:52 PM 39.7°F4.3°C 15.6°F-9.1°C 37% 5.0 mph W8.0 kmh W 10.0 mph16.1 kmh 29.82 in1009.8 mb 0.00 in0.0 mm 0.00 in0.0 mm 0.00 in0.0 mm
05:54 PM 39.7°F4.3°C 15.6°F-9.1°C 37% 13.0 mph WNW20.9 kmh WNW 13.0 mph20.9 kmh 29.82 in1009.8 mb 0.00 in0.0 mm 0.00 in0.0 mm 0.00 in0.0 mm
05:56 PM 39.6°F4.2°C 14.9°F-9.5°C 36% 9.0 mph NW14.5 kmh NW 9.0 mph14.5 kmh 29.82 in1009.8 mb 0.00 in0.0 mm 0.00 in0.0 mm 0.00 in0.0 mm
05:58 PM 39.5°F4.2°C 14.8°F-9.6°C 36% 14.0 mph W22.5 kmh W 27.0 mph43.5 kmh 29.82 in1009.8 mb 0.00 in0.0 mm 0.00 in0.0 mm 0.00 in0.0 mm
06:00 PM 39.4°F4.1°C 14.7°F-9.6°C 36% 14.0 mph WNW22.5 kmh WNW 14.0 mph22.5 kmh 29.83 in1010.2 mb 0.00 in0.0 mm 0.00 in0.0 mm 0.00 in0.0 mm
06:02 PM 39.3°F4.1°C 15.2°F-9.3°C 37% 6.0 mph NW9.7 kmh NW 8.0 mph12.9 kmh 29.83 in1010.2 mb 0.00 in0.0 mm 0.00 in0.0 mm 0.00 in0.0 mm
06:04 PM 39.3°F4.1°C 15.2°F-9.3°C 37% 4.0 mph WSW6.4 kmh WSW 5.0 mph8.0 kmh 29.83 in1010.2 mb 0.00 in0.0 mm 0.00 in0.0 mm 0.00 in0.0 mm
06:06 PM 39.2°F4.0°C 15.1°F-9.4°C 37% 10.0 mph W16.1 kmh W 14.0 mph22.5 kmh 29.83 in1010.2 mb 0.00 in0.0 mm 0.00 in0.0 mm 0.00 in0.0 mm
06:08 PM 39.2°F4.0°C 15.1°F-9.4°C 37% 9.0 mph NW14.5 kmh NW 12.0 mph19.3 kmh 29.83 in1010.2 mb 0.00 in0.0 mm 0.00 in0.0 mm 0.00 in0.0 mm
06:10 PM 39.1°F3.9°C 15.0°F-9.4°C 37% 15.0 mph WSW24.1 kmh WSW 15.0 mph24.1 kmh 29.83 in1010.2 mb 0.00 in0.0 mm 0.00 in0.0 mm 0.00 in0.0 mm
06:12 PM 39.1°F3.9°C 15.0°F-9.4°C 37% 6.0 mph NW9.7 kmh NW 7.0 mph11.3 kmh 29.83 in1010.2 mb 0.00 in0.0 mm 0.00 in0.0 mm 0.00 in0.0 mm
06:14 PM 39.1°F3.9°C 15.7°F-9.1°C 38% 10.0 mph W16.1 kmh W 11.0 mph17.7 kmh 29.84 in1010.5 mb 0.00 in0.0 mm 0.00 in0.0 mm 0.00 in0.0 mm
06:16 PM 39.0°F3.9°C 15.0°F-9.4°C 37% 9.0 mph NW14.5 kmh NW 11.0 mph17.7 kmh 29.84 in1010.5 mb 0.00 in0.0 mm 0.00 in0.0 mm 0.00 in0.0 mm
06:18 PM 38.9°F3.8°C 14.9°F-9.5°C 37% 5.0 mph WNW8.0 kmh WNW 6.0 mph9.7 kmh 29.84 in1010.5 mb 0.00 in0.0 mm 0.00 in0.0 mm 0.00 in0.0 mm
06:20 PM 38.9°F3.8°C 14.9°F-9.5°C 37% 12.0 mph NW19.3 kmh NW 12.0 mph19.3 kmh 29.84 in1010.5 mb 0.00 in0.0 mm 0.00 in0.0 mm 0.00 in0.0 mm
06:22 PM 38.8°F3.8°C 14.8°F-9.6°C 37% 6.0 mph WNW9.7 kmh WNW 7.0 mph11.3 kmh 29.84 in1010.5 mb 0.00 in0.0 mm 0.00 in0.0 mm 0.00 in0.0 mm
06:24 PM 38.8°F3.8°C 14.8°F-9.6°C 37% 6.0 mph W9.7 kmh W 6.0 mph9.7 kmh 29.84 in1010.5 mb 0.00 in0.0 mm 0.00 in0.0 mm 0.00 in0.0 mm
06:26 PM 38.8°F3.8°C 15.4°F-9.2°C 38% 12.0 mph WNW19.3 kmh WNW 12.0 mph19.3 kmh 29.84 in1010.5 mb 0.00 in0.0 mm 0.00 in0.0 mm 0.00 in0.0 mm
06:28 PM 38.7°F3.7°C 14.7°F-9.6°C 37% 13.0 mph W20.9 kmh W 13.0 mph20.9 kmh 29.84 in1010.5 mb 0.00 in0.0 mm 0.00 in0.0 mm 0.00 in0.0 mm
06:30 PM 38.6°F3.7°C 15.2°F-9.3°C 38% 9.0 mph NW14.5 kmh NW 9.0 mph14.5 kmh 29.85 in1010.8 mb 0.00 in0.0 mm 0.00 in0.0 mm 0.00 in0.0 mm
06:32 PM 38.6°F3.7°C 15.2°F-9.3°C 38% 7.0 mph NW11.3 kmh NW 7.0 mph11.3 kmh 29.85 in1010.8 mb 0.00 in0.0 mm 0.00 in0.0 mm 0.00 in0.0 mm
06:34 PM 38.4°F3.6°C 15.0°F-9.4°C 38% 1.0 mph WNW1.6 kmh WNW 5.0 mph8.0 kmh 29.85 in1010.8 mb 0.00 in0.0 mm 0.00 in0.0 mm 0.00 in0.0 mm
06:36 PM 38.4°F3.6°C 15.0°F-9.4°C 38% 2.0 mph W3.2 kmh W 4.0 mph6.4 kmh 29.85 in1010.8 mb 0.00 in0.0 mm 0.00 in0.0 mm 0.00 in0.0 mm
06:38 PM 38.3°F3.5°C 14.3°F-9.8°C 37% 7.0 mph WNW11.3 kmh WNW 7.0 mph11.3 kmh 29.86 in1011.2 mb 0.00 in0.0 mm 0.00 in0.0 mm 0.00 in0.0 mm
06:40 PM 38.3°F3.5°C 14.9°F-9.5°C 38% 5.0 mph WNW8.0 kmh WNW 7.0 mph11.3 kmh 29.86 in1011.2 mb 0.00 in0.0 mm 0.00 in0.0 mm 0.00 in0.0 mm
06:42 PM 38.2°F3.4°C 14.8°F-9.6°C 38% 9.0 mph WNW14.5 kmh WNW 9.0 mph14.5 kmh 29.86 in1011.2 mb 0.00 in0.0 mm 0.00 in0.0 mm 0.00 in0.0 mm
06:44 PM 38.2°F3.4°C 14.8°F-9.6°C 38% 6.0 mph WNW9.7 kmh WNW 7.0 mph11.3 kmh 29.86 in1011.2 mb 0.00 in0.0 mm 0.00 in0.0 mm 0.00 in0.0 mm
06:46 PM 38.1°F3.4°C 14.8°F-9.6°C 38% 5.0 mph WNW8.0 kmh WNW 6.0 mph9.7 kmh 29.86 in1011.2 mb 0.00 in0.0 mm 0.00 in0.0 mm 0.00 in0.0 mm
06:48 PM 38.1°F3.4°C 14.8°F-9.6°C 38% 4.0 mph NW6.4 kmh NW 6.0 mph9.7 kmh 29.86 in1011.2 mb 0.00 in0.0 mm 0.00 in0.0 mm 0.00 in0.0 mm
06:50 PM 38.0°F3.3°C 14.7°F-9.6°C 38% 7.0 mph NW11.3 kmh NW 10.0 mph16.1 kmh 29.87 in1011.5 mb 0.00 in0.0 mm 0.00 in0.0 mm 0.00 in0.0 mm
06:52 PM 38.0°F3.3°C 14.7°F-9.6°C 38% 3.0 mph NW4.8 kmh NW 3.0 mph4.8 kmh 29.87 in1011.5 mb 0.00 in0.0 mm 0.00 in0.0 mm 0.00 in0.0 mm
06:54 PM 37.9°F3.3°C 14.6°F-9.7°C 38% 1.0 mph NW1.6 kmh NW 1.0 mph1.6 kmh 29.87 in1011.5 mb 0.00 in0.0 mm 0.00 in0.0 mm 0.00 in0.0 mm
06:56 PM 37.9°F3.3°C 14.6°F-9.7°C 38% 3.0 mph WNW4.8 kmh WNW 3.0 mph4.8 kmh 29.87 in1011.5 mb 0.00 in0.0 mm 0.00 in0.0 mm 0.00 in0.0 mm
06:58 PM 37.9°F3.3°C 14.6°F-9.7°C 38% 1.0 mph WNW1.6 kmh WNW 3.0 mph4.8 kmh 29.88 in1011.9 mb 0.00 in0.0 mm 0.00 in0.0 mm 0.00 in0.0 mm
07:00 PM 37.8°F3.2°C 14.5°F-9.7°C 38% 1.0 mph NW1.6 kmh NW 2.0 mph3.2 kmh 29.88 in1011.9 mb 0.00 in0.0 mm 0.00 in0.0 mm 0.00 in0.0 mm
07:02 PM 37.8°F3.2°C 15.1°F-9.4°C 39% 3.0 mph NW4.8 kmh NW 3.0 mph4.8 kmh 29.88 in1011.9 mb 0.00 in0.0 mm 0.00 in0.0 mm 0.00 in0.0 mm
07:04 PM 37.7°F3.2°C 15.0°F-9.4°C 39% Calm Calm -- 29.88 in1011.9 mb 0.00 in0.0 mm 0.00 in0.0 mm 0.00 in0.0 mm
07:06 PM 37.6°F3.1°C 14.9°F-9.5°C 39% 3.0 mph NW4.8 kmh NW 5.0 mph8.0 kmh 29.88 in1011.9 mb 0.00 in0.0 mm 0.00 in0.0 mm 0.00 in0.0 mm
07:08 PM 37.5°F3.1°C 14.2°F-9.9°C 38% 14.0 mph NW22.5 kmh NW 16.0 mph25.7 kmh 29.89 in1012.2 mb 0.00 in0.0 mm 0.00 in0.0 mm 0.00 in0.0 mm
07:10 PM 37.4°F3.0°C 14.1°F-9.9°C 38% 3.0 mph WNW4.8 kmh WNW 4.0 mph6.4 kmh 29.89 in1012.2 mb 0.00 in0.0 mm 0.00 in0.0 mm 0.00 in0.0 mm
07:12 PM 37.4°F3.0°C 14.7°F-9.6°C 39% 3.0 mph WNW4.8 kmh WNW 3.0 mph4.8 kmh 29.89 in1012.2 mb 0.00 in0.0 mm 0.00 in0.0 mm 0.00 in0.0 mm
07:14 PM 37.3°F2.9°C 14.0°F-10.0°C 38% 2.0 mph W3.2 kmh W 3.0 mph4.8 kmh 29.89 in1012.2 mb 0.00 in0.0 mm 0.00 in0.0 mm 0.00 in0.0 mm
07:16 PM 37.3°F2.9°C 14.0°F-10.0°C 38% 3.0 mph NW4.8 kmh NW 9.0 mph14.5 kmh 29.89 in1012.2 mb 0.00 in0.0 mm 0.00 in0.0 mm 0.00 in0.0 mm
07:18 PM 37.3°F2.9°C 14.6°F-9.7°C 39% Calm Calm -- 29.89 in1012.2 mb 0.00 in0.0 mm 0.00 in0.0 mm 0.00 in0.0 mm
07:20 PM 37.2°F2.9°C 14.5°F-9.7°C 39% 4.0 mph NW6.4 kmh NW 4.0 mph6.4 kmh 29.89 in1012.2 mb 0.00 in0.0 mm 0.00 in0.0 mm 0.00 in0.0 mm
07:22 PM 37.1°F2.8°C 14.5°F-9.7°C 39% 3.0 mph N4.8 kmh N 3.0 mph4.8 kmh 29.89 in1012.2 mb 0.00 in0.0 mm 0.00 in0.0 mm 0.00 in0.0 mm
07:24 PM 37.1°F2.8°C 14.5°F-9.7°C 39% 4.0 mph W6.4 kmh W 5.0 mph8.0 kmh 29.89 in1012.2 mb 0.00 in0.0 mm 0.00 in0.0 mm 0.00 in0.0 mm
07:26 PM 37.0°F2.8°C 13.8°F-10.1°C 38% 1.0 mph WNW1.6 kmh WNW 1.0 mph1.6 kmh 29.90 in1012.5 mb 0.00 in0.0 mm 0.00 in0.0 mm 0.00 in0.0 mm
07:28 PM 37.0°F2.8°C 13.8°F-10.1°C 38% Calm Calm 1.0 mph1.6 kmh 29.90 in1012.5 mb 0.00 in0.0 mm 0.00 in0.0 mm 0.00 in0.0 mm
07:30 PM 37.0°F2.8°C 14.4°F-9.8°C 39% 4.0 mph N6.4 kmh N 6.0 mph9.7 kmh 29.90 in1012.5 mb 0.00 in0.0 mm 0.00 in0.0 mm 0.00 in0.0 mm
07:32 PM 36.9°F2.7°C 14.3°F-9.8°C 39% 5.0 mph NW8.0 kmh NW 6.0 mph9.7 kmh 29.90 in1012.5 mb 0.00 in0.0 mm 0.00 in0.0 mm 0.00 in0.0 mm
07:34 PM 36.9°F2.7°C 13.7°F-10.2°C 38% 2.0 mph NW3.2 kmh NW 2.0 mph3.2 kmh 29.90 in1012.5 mb 0.00 in0.0 mm 0.00 in0.0 mm 0.00 in0.0 mm
07:36 PM 36.8°F2.7°C 13.6°F-10.2°C 38% 7.0 mph WNW11.3 kmh WNW 7.0 mph11.3 kmh 29.90 in1012.5 mb 0.00 in0.0 mm 0.00 in0.0 mm 0.00 in0.0 mm
07:38 PM 36.7°F2.6°C 13.5°F-10.3°C 38% 5.0 mph W8.0 kmh W 6.0 mph9.7 kmh 29.90 in1012.5 mb 0.00 in0.0 mm 0.00 in0.0 mm 0.00 in0.0 mm
07:40 PM 36.7°F2.6°C 13.5°F-10.3°C 38% 2.0 mph NW3.2 kmh NW 3.0 mph4.8 kmh 29.91 in1012.9 mb 0.00 in0.0 mm 0.00 in0.0 mm 0.00 in0.0 mm
07:42 PM 36.6°F2.6°C 13.4°F-10.3°C 38% 3.0 mph WNW4.8 kmh WNW 4.0 mph6.4 kmh 29.91 in1012.9 mb 0.00 in0.0 mm 0.00 in0.0 mm 0.00 in0.0 mm
07:44 PM 36.6°F2.6°C 13.4°F-10.3°C 38% 2.0 mph WNW3.2 kmh WNW 2.0 mph3.2 kmh 29.91 in1012.9 mb 0.00 in0.0 mm 0.00 in0.0 mm 0.00 in0.0 mm
07:46 PM 36.6°F2.6°C 14.0°F-10.0°C 39% 9.0 mph WSW14.5 kmh WSW 12.0 mph19.3 kmh 29.92 in1013.2 mb 0.00 in0.0 mm 0.00 in0.0 mm 0.00 in0.0 mm
07:48 PM 36.5°F2.5°C 13.3°F-10.4°C 38% 3.0 mph NW4.8 kmh NW 6.0 mph9.7 kmh 29.91 in1012.9 mb 0.00 in0.0 mm 0.00 in0.0 mm 0.00 in0.0 mm
07:50 PM 36.5°F2.5°C 13.9°F-10.1°C 39% 3.0 mph NW4.8 kmh NW 3.0 mph4.8 kmh 29.92 in1013.2 mb 0.00 in0.0 mm 0.00 in0.0 mm 0.00 in0.0 mm
07:52 PM 36.4°F2.4°C 13.2°F-10.4°C 38% 2.0 mph NW3.2 kmh NW 3.0 mph4.8 kmh 29.92 in1013.2 mb 0.00 in0.0 mm 0.00 in0.0 mm 0.00 in0.0 mm
07:54 PM 36.4°F2.4°C 13.2°F-10.4°C 38% 1.0 mph NW1.6 kmh NW 2.0 mph3.2 kmh 29.92 in1013.2 mb 0.00 in0.0 mm 0.00 in0.0 mm 0.00 in0.0 mm
07:56 PM 36.4°F2.4°C 13.2°F-10.4°C 38% Calm Calm -- 29.92 in1013.2 mb 0.00 in0.0 mm 0.00 in0.0 mm 0.00 in0.0 mm
07:58 PM 36.3°F2.4°C 13.1°F-10.5°C 38% Calm Calm -- 29.92 in1013.2 mb 0.00 in0.0 mm 0.00 in0.0 mm 0.00 in0.0 mm
08:00 PM 36.2°F2.3°C 13.1°F-10.5°C 38% 1.0 mph NW1.6 kmh NW 1.0 mph1.6 kmh 29.92 in1013.2 mb 0.00 in0.0 mm 0.00 in0.0 mm 0.00 in0.0 mm
08:02 PM 36.2°F2.3°C 12.5°F-10.8°C 37% 2.0 mph NW3.2 kmh NW 2.0 mph3.2 kmh 29.92 in1013.2 mb 0.00 in0.0 mm 0.00 in0.0 mm 0.00 in0.0 mm
08:04 PM 36.1°F2.3°C 13.0°F-10.6°C 38% 2.0 mph W3.2 kmh W 4.0 mph6.4 kmh 29.92 in1013.2 mb 0.00 in0.0 mm 0.00 in0.0 mm 0.00 in0.0 mm
08:06 PM 36.1°F2.3°C 13.0°F-10.6°C 38% 4.0 mph NW6.4 kmh NW 6.0 mph9.7 kmh 29.92 in1013.2 mb 0.00 in0.0 mm 0.00 in0.0 mm 0.00 in0.0 mm
08:08 PM 36.1°F2.3°C 13.0°F-10.6°C 38% 4.0 mph N6.4 kmh N 4.0 mph6.4 kmh 29.92 in1013.2 mb 0.00 in0.0 mm 0.00 in0.0 mm 0.00 in0.0 mm
08:10 PM 36.0°F2.2°C 12.3°F-10.9°C 37% 1.0 mph NW1.6 kmh NW 2.0 mph3.2 kmh 29.92 in1013.2 mb 0.00 in0.0 mm 0.00 in0.0 mm 0.00 in0.0 mm
08:12 PM 36.0°F2.2°C 12.3°F-10.9°C 37% 9.0 mph N14.5 kmh N 9.0 mph14.5 kmh 29.93 in1013.5 mb 0.00 in0.0 mm 0.00 in0.0 mm 0.00 in0.0 mm
08:14 PM 36.0°F2.2°C 12.3°F-10.9°C 37% 7.0 mph NW11.3 kmh NW 7.0 mph11.3 kmh 29.93 in1013.5 mb 0.00 in0.0 mm 0.00 in0.0 mm 0.00 in0.0 mm
08:16 PM 36.0°F2.2°C 12.3°F-10.9°C 37% 1.0 mph NW1.6 kmh NW 2.0 mph3.2 kmh 29.93 in1013.5 mb 0.00 in0.0 mm 0.00 in0.0 mm 0.00 in0.0 mm
08:18 PM 35.9°F2.2°C 12.2°F-11.0°C 37% 1.0 mph NW1.6 kmh NW 1.0 mph1.6 kmh 29.93 in1013.5 mb 0.00 in0.0 mm 0.00 in0.0 mm 0.00 in0.0 mm
08:20 PM 35.9°F2.2°C 12.2°F-11.0°C 37% 3.0 mph WNW4.8 kmh WNW 3.0 mph4.8 kmh 29.93 in1013.5 mb 0.00 in0.0 mm 0.00 in0.0 mm 0.00 in0.0 mm
08:22 PM 35.9°F2.2°C 12.2°F-11.0°C 37% 3.0 mph WNW4.8 kmh WNW 3.0 mph4.8 kmh 29.93 in1013.5 mb 0.00 in0.0 mm 0.00 in0.0 mm 0.00 in0.0 mm
08:24 PM 35.9°F2.2°C 12.2°F-11.0°C 37% 2.0 mph WNW3.2 kmh WNW 2.0 mph3.2 kmh 29.93 in1013.5 mb 0.00 in0.0 mm 0.00 in0.0 mm 0.00 in0.0 mm
08:26 PM 35.9°F2.2°C 12.2°F-11.0°C 37% 2.0 mph WNW3.2 kmh WNW 2.0 mph3.2 kmh 29.93 in1013.5 mb 0.00 in0.0 mm 0.00 in0.0 mm 0.00 in0.0 mm
08:28 PM 35.8°F2.1°C 12.1°F-11.1°C 37% 7.0 mph WNW11.3 kmh WNW 7.0 mph11.3 kmh 29.94 in1013.9 mb 0.00 in0.0 mm 0.00 in0.0 mm 0.00 in0.0 mm
08:30 PM 35.7°F2.1°C 12.0°F-11.1°C 37% 4.0 mph NW6.4 kmh NW 5.0 mph8.0 kmh 29.94 in1013.9 mb 0.00 in0.0 mm 0.00 in0.0 mm 0.00 in0.0 mm
08:32 PM 35.7°F2.1°C 12.6°F-10.8°C 38% 2.0 mph NW3.2 kmh NW 2.0 mph3.2 kmh 29.94 in1013.9 mb 0.00 in0.0 mm 0.00 in0.0 mm 0.00 in0.0 mm
08:34 PM 35.6°F2.0°C 12.5°F-10.8°C 38% Calm Calm 3.0 mph4.8 kmh 29.94 in1013.9 mb 0.00 in0.0 mm 0.00 in0.0 mm 0.00 in0.0 mm
08:36 PM 35.6°F2.0°C 11.9°F-11.2°C 37% Calm Calm -- 29.94 in1013.9 mb 0.00 in0.0 mm 0.00 in0.0 mm 0.00 in0.0 mm
08:38 PM 35.5°F1.9°C 11.8°F-11.2°C 37% Calm Calm 2.0 mph3.2 kmh 29.94 in1013.9 mb 0.00 in0.0 mm 0.00 in0.0 mm 0.00 in0.0 mm
08:40 PM 35.4°F1.9°C 12.3°F-10.9°C 38% 1.0 mph NW1.6 kmh NW 1.0 mph1.6 kmh 29.94 in1013.9 mb 0.00 in0.0 mm 0.00 in0.0 mm 0.00 in0.0 mm
08:42 PM 35.4°F1.9°C 12.3°F-10.9°C 38% 1.0 mph N1.6 kmh N 3.0 mph4.8 kmh 29.94 in1013.9 mb 0.00 in0.0 mm 0.00 in0.0 mm 0.00 in0.0 mm
08:44 PM 35.3°F1.8°C 12.2°F-11.0°C 38% Calm Calm 2.0 mph3.2 kmh 29.95 in1014.2 mb 0.00 in0.0 mm 0.00 in0.0 mm 0.00 in0.0 mm
08:46 PM 35.3°F1.8°C 12.2°F-11.0°C 38% 5.0 mph NW8.0 kmh NW 5.0 mph8.0 kmh 29.95 in1014.2 mb 0.00 in0.0 mm 0.00 in0.0 mm 0.00 in0.0 mm
08:48 PM 35.3°F1.8°C 12.2°F-11.0°C 38% 6.0 mph NW9.7 kmh NW 6.0 mph9.7 kmh 29.95 in1014.2 mb 0.00 in0.0 mm 0.00 in0.0 mm 0.00 in0.0 mm
08:50 PM 35.2°F1.8°C 12.2°F-11.0°C 38% 4.0 mph SW6.4 kmh SW 10.0 mph16.1 kmh 29.95 in1014.2 mb 0.00 in0.0 mm 0.00 in0.0 mm 0.00 in0.0 mm
08:52 PM 35.2°F1.8°C 12.2°F-11.0°C 38% 6.0 mph NNW9.7 kmh NNW 6.0 mph9.7 kmh 29.95 in1014.2 mb 0.00 in0.0 mm 0.00 in0.0 mm 0.00 in0.0 mm
08:54 PM 35.2°F1.8°C 12.7°F-10.7°C 39% 9.0 mph W14.5 kmh W 9.0 mph14.5 kmh 29.95 in1014.2 mb 0.00 in0.0 mm 0.00 in0.0 mm 0.00 in0.0 mm
08:56 PM 35.2°F1.8°C 12.2°F-11.0°C 38% 2.0 mph NW3.2 kmh NW 5.0 mph8.0 kmh 29.95 in1014.2 mb 0.00 in0.0 mm 0.00 in0.0 mm 0.00 in0.0 mm
08:58 PM 35.2°F1.8°C 12.2°F-11.0°C 38% 4.0 mph NW6.4 kmh NW 7.0 mph11.3 kmh 29.95 in1014.2 mb 0.00 in0.0 mm 0.00 in0.0 mm 0.00 in0.0 mm
09:00 PM 35.1°F1.7°C 12.7°F-10.7°C 39% 2.0 mph NW3.2 kmh NW 9.0 mph14.5 kmh 29.95 in1014.2 mb 0.00 in0.0 mm 0.00 in0.0 mm 0.00 in0.0 mm
09:02 PM 35.1°F1.7°C 12.7°F-10.7°C 39% 5.0 mph W8.0 kmh W 5.0 mph8.0 kmh 29.95 in1014.2 mb 0.00 in0.0 mm 0.00 in0.0 mm 0.00 in0.0 mm
09:04 PM 35.1°F1.7°C 12.1°F-11.1°C 38% 6.0 mph NW9.7 kmh NW 14.0 mph22.5 kmh 29.95 in1014.2 mb 0.00 in0.0 mm 0.00 in0.0 mm 0.00 in0.0 mm
09:06 PM 35.0°F1.7°C 12.0°F-11.1°C 38% 6.0 mph NW9.7 kmh NW 12.0 mph19.3 kmh 29.95 in1014.2 mb 0.00 in0.0 mm 0.00 in0.0 mm 0.00 in0.0 mm
09:08 PM 35.0°F1.7°C 11.4°F-11.4°C 37% 9.0 mph WSW14.5 kmh WSW 12.0 mph19.3 kmh 29.95 in1014.2 mb 0.00 in0.0 mm 0.00 in0.0 mm 0.00 in0.0 mm
09:10 PM 35.0°F1.7°C 11.4°F-11.4°C 37% 5.0 mph NW8.0 kmh NW 10.0 mph16.1 kmh 29.95 in1014.2 mb 0.00 in0.0 mm 0.00 in0.0 mm 0.00 in0.0 mm
09:12 PM 35.0°F1.7°C 11.4°F-11.4°C 37% 9.0 mph WSW14.5 kmh WSW 10.0 mph16.1 kmh 29.96 in1014.6 mb 0.00 in0.0 mm 0.00 in0.0 mm 0.00 in0.0 mm
09:14 PM 35.0°F1.7°C 11.4°F-11.4°C 37% 13.0 mph NW20.9 kmh NW 15.0 mph24.1 kmh 29.96 in1014.6 mb 0.00 in0.0 mm 0.00 in0.0 mm 0.00 in0.0 mm
09:16 PM 35.0°F1.7°C 11.4°F-11.4°C 37% 10.0 mph NW16.1 kmh NW 11.0 mph17.7 kmh 29.96 in1014.6 mb 0.00 in0.0 mm 0.00 in0.0 mm 0.00 in0.0 mm
09:18 PM 35.0°F1.7°C 11.4°F-11.4°C 37% 5.0 mph NW8.0 kmh NW 11.0 mph17.7 kmh 29.96 in1014.6 mb 0.00 in0.0 mm 0.00 in0.0 mm 0.00 in0.0 mm
09:20 PM 35.0°F1.7°C 11.4°F-11.4°C 37% 6.0 mph WSW9.7 kmh WSW 6.0 mph9.7 kmh 29.96 in1014.6 mb 0.00 in0.0 mm 0.00 in0.0 mm 0.00 in0.0 mm
09:22 PM 34.9°F1.6°C 10.7°F-11.8°C 36% 10.0 mph NW16.1 kmh NW 17.0 mph27.4 kmh 29.96 in1014.6 mb 0.00 in0.0 mm 0.00 in0.0 mm 0.00 in0.0 mm
09:24 PM 34.9°F1.6°C 11.3°F-11.5°C 37% 6.0 mph NW9.7 kmh NW 9.0 mph14.5 kmh 29.96 in1014.6 mb 0.00 in0.0 mm 0.00 in0.0 mm 0.00 in0.0 mm
09:26 PM 34.8°F1.6°C 11.2°F-11.6°C 37% 6.0 mph NW9.7 kmh NW 12.0 mph19.3 kmh 29.96 in1014.6 mb 0.00 in0.0 mm 0.00 in0.0 mm 0.00 in0.0 mm
09:28 PM 34.7°F1.5°C 11.1°F-11.6°C 37% 5.0 mph WNW8.0 kmh WNW 7.0 mph11.3 kmh 29.96 in1014.6 mb 0.00 in0.0 mm 0.00 in0.0 mm 0.00 in0.0 mm
09:30 PM 34.6°F1.4°C 11.0°F-11.7°C 37% 7.0 mph NW11.3 kmh NW 7.0 mph11.3 kmh 29.96 in1014.6 mb 0.00 in0.0 mm 0.00 in0.0 mm 0.00 in0.0 mm
09:32 PM 34.7°F1.5°C 11.1°F-11.6°C 37% 4.0 mph NW6.4 kmh NW 6.0 mph9.7 kmh 29.96 in1014.6 mb 0.00 in0.0 mm 0.00 in0.0 mm 0.00 in0.0 mm
09:34 PM 34.5°F1.4°C 10.9°F-11.7°C 37% 6.0 mph NW9.7 kmh NW 6.0 mph9.7 kmh 29.97 in1014.9 mb 0.00 in0.0 mm 0.00 in0.0 mm 0.00 in0.0 mm
09:36 PM 34.4°F1.3°C 10.2°F-12.1°C 36% 3.0 mph W4.8 kmh W 11.0 mph17.7 kmh 29.97 in1014.9 mb 0.00 in0.0 mm 0.00 in0.0 mm 0.00 in0.0 mm
09:38 PM 34.4°F1.3°C 10.2°F-12.1°C 36% 5.0 mph NW8.0 kmh NW 9.0 mph14.5 kmh 29.97 in1014.9 mb 0.00 in0.0 mm 0.00 in0.0 mm 0.00 in0.0 mm
09:40 PM 34.4°F1.3°C 10.2°F-12.1°C 36% 9.0 mph WNW14.5 kmh WNW 10.0 mph16.1 kmh 29.97 in1014.9 mb 0.00 in0.0 mm 0.00 in0.0 mm 0.00 in0.0 mm
09:42 PM 34.3°F1.3°C 10.8°F-11.8°C 37% 13.0 mph NW20.9 kmh NW 15.0 mph24.1 kmh 29.97 in1014.9 mb 0.00 in0.0 mm 0.00 in0.0 mm 0.00 in0.0 mm
09:44 PM 34.3°F1.3°C 10.1°F-12.2°C 36% 7.0 mph WNW11.3 kmh WNW 12.0 mph19.3 kmh 29.97 in1014.9 mb 0.00 in0.0 mm 0.00 in0.0 mm 0.00 in0.0 mm
09:46 PM 34.3°F1.3°C 10.8°F-11.8°C 37% 5.0 mph NW8.0 kmh NW 5.0 mph8.0 kmh 29.97 in1014.9 mb 0.00 in0.0 mm 0.00 in0.0 mm 0.00 in0.0 mm
09:48 PM 34.3°F1.3°C 10.8°F-11.8°C 37% 9.0 mph NE14.5 kmh NE 9.0 mph14.5 kmh 29.98 in1015.2 mb 0.00 in0.0 mm 0.00 in0.0 mm 0.00 in0.0 mm
09:50 PM 34.3°F1.3°C 10.8°F-11.8°C 37% 5.0 mph NW8.0 kmh NW 5.0 mph8.0 kmh 29.98 in1015.2 mb 0.00 in0.0 mm 0.00 in0.0 mm 0.00 in0.0 mm
09:52 PM 34.2°F1.2°C 10.7°F-11.8°C 37% 3.0 mph NW4.8 kmh NW 5.0 mph8.0 kmh 29.97 in1014.9 mb 0.00 in0.0 mm 0.00 in0.0 mm 0.00 in0.0 mm
09:54 PM 34.2°F1.2°C 11.3°F-11.5°C 38% 2.0 mph NW3.2 kmh NW 7.0 mph11.3 kmh 29.98 in1015.2 mb 0.00 in0.0 mm 0.00 in0.0 mm 0.00 in0.0 mm
09:56 PM 34.1°F1.2°C 11.2°F-11.6°C 38% 7.0 mph NW11.3 kmh NW 7.0 mph11.3 kmh 29.98 in1015.2 mb 0.00 in0.0 mm 0.00 in0.0 mm 0.00 in0.0 mm
09:58 PM 34.1°F1.2°C 11.2°F-11.6°C 38% 6.0 mph NW9.7 kmh NW 9.0 mph14.5 kmh 29.98 in1015.2 mb 0.00 in0.0 mm 0.00 in0.0 mm 0.00 in0.0 mm
10:00 PM 34.0°F1.1°C 11.1°F-11.6°C 38% 4.0 mph NW6.4 kmh NW 4.0 mph6.4 kmh 29.98 in1015.2 mb 0.00 in0.0 mm 0.00 in0.0 mm 0.00 in0.0 mm
10:02 PM 34.0°F1.1°C 11.1°F-11.6°C 38% 2.0 mph NW3.2 kmh NW 7.0 mph11.3 kmh 29.99 in1015.6 mb 0.00 in0.0 mm 0.00 in0.0 mm 0.00 in0.0 mm
10:04 PM 33.9°F1.1°C 11.6°F-11.3°C 39% 3.0 mph NW4.8 kmh NW 4.0 mph6.4 kmh 29.98 in1015.2 mb 0.00 in0.0 mm 0.00 in0.0 mm 0.00 in0.0 mm
10:06 PM 33.9°F1.1°C 11.6°F-11.3°C 39% 10.0 mph NW16.1 kmh NW 10.0 mph16.1 kmh 29.99 in1015.6 mb 0.00 in0.0 mm 0.00 in0.0 mm 0.00 in0.0 mm
10:08 PM 33.8°F1.0°C 10.9°F-11.7°C 38% 2.0 mph NW3.2 kmh NW 5.0 mph8.0 kmh 29.98 in1015.2 mb 0.00 in0.0 mm 0.00 in0.0 mm 0.00 in0.0 mm
10:10 PM 33.8°F1.0°C 11.5°F-11.4°C 39% 6.0 mph WNW9.7 kmh WNW 7.0 mph11.3 kmh 29.99 in1015.6 mb 0.00 in0.0 mm 0.00 in0.0 mm 0.00 in0.0 mm
10:12 PM 33.7°F0.9°C 11.4°F-11.4°C 39% 5.0 mph WNW8.0 kmh WNW 6.0 mph9.7 kmh 29.99 in1015.6 mb 0.00 in0.0 mm 0.00 in0.0 mm 0.00 in0.0 mm
10:14 PM 33.7°F0.9°C 11.4°F-11.4°C 39% 3.0 mph N4.8 kmh N 9.0 mph14.5 kmh 29.99 in1015.6 mb 0.00 in0.0 mm 0.00 in0.0 mm 0.00 in0.0 mm
10:16 PM 33.7°F0.9°C 11.4°F-11.4°C 39% 2.0 mph WNW3.2 kmh WNW 5.0 mph8.0 kmh 29.99 in1015.6 mb 0.00 in0.0 mm 0.00 in0.0 mm 0.00 in0.0 mm
10:18 PM 33.7°F0.9°C 11.4°F-11.4°C 39% 3.0 mph NW4.8 kmh NW 6.0 mph9.7 kmh 29.99 in1015.6 mb 0.00 in0.0 mm 0.00 in0.0 mm 0.00 in0.0 mm
10:20 PM 33.6°F0.9°C 11.3°F-11.5°C 39% 7.0 mph WNW11.3 kmh WNW 9.0 mph14.5 kmh 29.99 in1015.6 mb 0.00 in0.0 mm 0.00 in0.0 mm 0.00 in0.0 mm
10:22 PM 33.6°F0.9°C 11.9°F-11.2°C 40% 2.0 mph WNW3.2 kmh WNW 4.0 mph6.4 kmh 30.00 in1015.9 mb 0.00 in0.0 mm 0.00 in0.0 mm 0.00 in0.0 mm
10:24 PM 33.5°F0.8°C 11.8°F-11.2°C 40% 6.0 mph WNW9.7 kmh WNW 13.0 mph20.9 kmh 30.00 in1015.9 mb 0.00 in0.0 mm 0.00 in0.0 mm 0.00 in0.0 mm
10:26 PM 33.5°F0.8°C 11.8°F-11.2°C 40% 3.0 mph NNW4.8 kmh NNW 11.0 mph17.7 kmh 30.00 in1015.9 mb 0.00 in0.0 mm 0.00 in0.0 mm 0.00 in0.0 mm
10:28 PM 33.5°F0.8°C 11.8°F-11.2°C 40% 11.0 mph W17.7 kmh W 19.0 mph30.6 kmh 30.00 in1015.9 mb 0.00 in0.0 mm 0.00 in0.0 mm 0.00 in0.0 mm
10:30 PM 33.5°F0.8°C 11.8°F-11.2°C 40% 6.0 mph WNW9.7 kmh WNW 7.0 mph11.3 kmh 30.00 in1015.9 mb 0.00 in0.0 mm 0.00 in0.0 mm 0.00 in0.0 mm
10:32 PM 33.5°F0.8°C 11.8°F-11.2°C 40% 4.0 mph NW6.4 kmh NW 5.0 mph8.0 kmh 30.00 in1015.9 mb 0.00 in0.0 mm 0.00 in0.0 mm 0.00 in0.0 mm
10:34 PM 33.4°F0.8°C 12.3°F-10.9°C 41% 5.0 mph N8.0 kmh N 5.0 mph8.0 kmh 30.00 in1015.9 mb 0.00 in0.0 mm 0.00 in0.0 mm 0.00 in0.0 mm
10:36 PM 33.4°F0.8°C 12.3°F-10.9°C 41% 7.0 mph W11.3 kmh W 10.0 mph16.1 kmh 30.00 in1015.9 mb 0.00 in0.0 mm 0.00 in0.0 mm 0.00 in0.0 mm
10:38 PM 33.3°F0.7°C 12.2°F-11.0°C 41% 3.0 mph NW4.8 kmh NW 5.0 mph8.0 kmh 30.00 in1015.9 mb 0.00 in0.0 mm 0.00 in0.0 mm 0.00 in0.0 mm
10:40 PM 33.3°F0.7°C 12.2°F-11.0°C 41% 9.0 mph NNW14.5 kmh NNW 9.0 mph14.5 kmh 30.01 in1016.3 mb 0.00 in0.0 mm 0.00 in0.0 mm 0.00 in0.0 mm
10:42 PM 33.2°F0.7°C 12.1°F-11.1°C 41% 4.0 mph WNW6.4 kmh WNW 5.0 mph8.0 kmh 30.01 in1016.3 mb 0.00 in0.0 mm 0.00 in0.0 mm 0.00 in0.0 mm
10:44 PM 33.2°F0.7°C 12.6°F-10.8°C 42% 2.0 mph WNW3.2 kmh WNW 3.0 mph4.8 kmh 30.01 in1016.3 mb 0.00 in0.0 mm 0.00 in0.0 mm 0.00 in0.0 mm
10:46 PM 33.1°F0.6°C 12.0°F-11.1°C 41% 4.0 mph NW6.4 kmh NW 6.0 mph9.7 kmh 30.01 in1016.3 mb 0.00 in0.0 mm 0.00 in0.0 mm 0.00 in0.0 mm
10:48 PM 33.1°F0.6°C 12.0°F-11.1°C 41% 3.0 mph NW4.8 kmh NW 4.0 mph6.4 kmh 30.01 in1016.3 mb 0.00 in0.0 mm 0.00 in0.0 mm 0.00 in0.0 mm
10:50 PM 33.0°F0.6°C 12.4°F-10.9°C 42% 7.0 mph WSW11.3 kmh WSW 7.0 mph11.3 kmh 30.01 in1016.3 mb 0.00 in0.0 mm 0.00 in0.0 mm 0.00 in0.0 mm
10:52 PM 33.0°F0.6°C 11.9°F-11.2°C 41% 4.0 mph W6.4 kmh W 4.0 mph6.4 kmh 30.01 in1016.3 mb 0.00 in0.0 mm 0.00 in0.0 mm 0.00 in0.0 mm
10:54 PM 32.9°F0.5°C 12.9°F-10.6°C 43% 3.0 mph NW4.8 kmh NW 5.0 mph8.0 kmh 30.01 in1016.3 mb 0.00 in0.0 mm 0.00 in0.0 mm 0.00 in0.0 mm
10:56 PM 32.9°F0.5°C 12.9°F-10.6°C 43% 2.0 mph NW3.2 kmh NW 2.0 mph3.2 kmh 30.01 in1016.3 mb 0.00 in0.0 mm 0.00 in0.0 mm 0.00 in0.0 mm
10:58 PM 32.8°F0.4°C 12.8°F-10.7°C 43% 4.0 mph NW6.4 kmh NW 5.0 mph8.0 kmh 30.01 in1016.3 mb 0.00 in0.0 mm 0.00 in0.0 mm 0.00 in0.0 mm
11:00 PM 32.8°F0.4°C 12.8°F-10.7°C 43% 9.0 mph NW14.5 kmh NW 9.0 mph14.5 kmh 30.01 in1016.3 mb 0.00 in0.0 mm 0.00 in0.0 mm 0.00 in0.0 mm
11:02 PM 32.7°F0.4°C 12.7°F-10.7°C 43% 2.0 mph NW3.2 kmh NW 3.0 mph4.8 kmh 30.01 in1016.3 mb 0.00 in0.0 mm 0.00 in0.0 mm 0.00 in0.0 mm
11:04 PM 32.7°F0.4°C 12.7°F-10.7°C 43% 6.0 mph NW9.7 kmh NW 6.0 mph9.7 kmh 30.02 in1016.6 mb 0.00 in0.0 mm 0.00 in0.0 mm 0.00 in0.0 mm
11:06 PM 32.7°F0.4°C 12.7°F-10.7°C 43% 2.0 mph NW3.2 kmh NW 3.0 mph4.8 kmh 30.02 in1016.6 mb 0.00 in0.0 mm 0.00 in0.0 mm 0.00 in0.0 mm
11:08 PM 32.6°F0.3°C 12.6°F-10.8°C 43% 4.0 mph NW6.4 kmh NW 6.0 mph9.7 kmh 30.02 in1016.6 mb 0.00 in0.0 mm 0.00 in0.0 mm 0.00 in0.0 mm
11:10 PM 32.6°F0.3°C 12.6°F-10.8°C 43% 2.0 mph NW3.2 kmh NW 3.0 mph4.8 kmh 30.02 in1016.6 mb 0.00 in0.0 mm 0.00 in0.0 mm 0.00 in0.0 mm
11:12 PM 32.6°F0.3°C 12.6°F-10.8°C 43% 2.0 mph NW3.2 kmh NW 3.0 mph4.8 kmh 30.02 in1016.6 mb 0.00 in0.0 mm 0.00 in0.0 mm 0.00 in0.0 mm
11:14 PM 32.5°F0.3°C 13.0°F-10.6°C 44% Calm Calm 1.0 mph1.6 kmh 30.02 in1016.6 mb 0.00 in0.0 mm 0.00 in0.0 mm 0.00 in0.0 mm
11:16 PM 32.5°F0.3°C 13.0°F-10.6°C 44% Calm Calm -- 30.02 in1016.6 mb 0.00 in0.0 mm 0.00 in0.0 mm 0.00 in0.0 mm
11:18 PM 32.4°F0.2°C 13.4°F-10.3°C 45% 3.0 mph NW4.8 kmh NW 4.0 mph6.4 kmh 30.02 in1016.6 mb 0.00 in0.0 mm 0.00 in0.0 mm 0.00 in0.0 mm
11:20 PM 32.4°F0.2°C 13.4°F-10.3°C 45% Calm Calm 2.0 mph3.2 kmh 30.02 in1016.6 mb 0.00 in0.0 mm 0.00 in0.0 mm 0.00 in0.0 mm
11:22 PM 32.4°F0.2°C 12.9°F-10.6°C 44% 6.0 mph NW9.7 kmh NW 7.0 mph11.3 kmh 30.02 in1016.6 mb 0.00 in0.0 mm 0.00 in0.0 mm 0.00 in0.0 mm
11:24 PM 32.3°F0.2°C 12.8°F-10.7°C 44% 7.0 mph W11.3 kmh W 9.0 mph14.5 kmh 30.02 in1016.6 mb 0.00 in0.0 mm 0.00 in0.0 mm 0.00 in0.0 mm
11:26 PM 32.3°F0.2°C 12.8°F-10.7°C 44% 6.0 mph NW9.7 kmh NW 6.0 mph9.7 kmh 30.02 in1016.6 mb 0.00 in0.0 mm 0.00 in0.0 mm 0.00 in0.0 mm
11:28 PM 32.3°F0.2°C 13.4°F-10.3°C 45% Calm Calm 4.0 mph6.4 kmh 30.02 in1016.6 mb 0.00 in0.0 mm 0.00 in0.0 mm 0.00 in0.0 mm
11:30 PM 32.2°F0.1°C 13.3°F-10.4°C 45% 4.0 mph NW6.4 kmh NW 7.0 mph11.3 kmh 30.02 in1016.6 mb 0.00 in0.0 mm 0.00 in0.0 mm 0.00 in0.0 mm
11:32 PM 32.2°F0.1°C 13.8°F-10.1°C 46% 3.0 mph NNW4.8 kmh NNW 3.0 mph4.8 kmh 30.02 in1016.6 mb 0.00 in0.0 mm 0.00 in0.0 mm 0.00 in0.0 mm
11:34 PM 32.2°F0.1°C 13.8°F-10.1°C 46% 6.0 mph NW9.7 kmh NW 6.0 mph9.7 kmh 30.02 in1016.6 mb 0.00 in0.0 mm 0.00 in0.0 mm 0.00 in0.0 mm
11:36 PM 32.2°F0.1°C 13.8°F-10.1°C 46% 4.0 mph WNW6.4 kmh WNW 4.0 mph6.4 kmh 30.03 in1016.9 mb 0.00 in0.0 mm 0.00 in0.0 mm 0.00 in0.0 mm
11:38 PM 32.2°F0.1°C 13.8°F-10.1°C 46% 3.0 mph NW4.8 kmh NW 3.0 mph4.8 kmh 30.03 in1016.9 mb 0.00 in0.0 mm 0.00 in0.0 mm 0.00 in0.0 mm
11:40 PM 32.2°F0.1°C 13.8°F-10.1°C 46% 6.0 mph NW9.7 kmh NW 6.0 mph9.7 kmh 30.03 in1016.9 mb 0.00 in0.0 mm 0.00 in0.0 mm 0.00 in0.0 mm
11:42 PM 32.2°F0.1°C 13.8°F-10.1°C 46% 6.0 mph NNW9.7 kmh NNW 6.0 mph9.7 kmh 30.03 in1016.9 mb 0.00 in0.0 mm 0.00 in0.0 mm 0.00 in0.0 mm
11:44 PM 32.1°F0.1°C 14.2°F-9.9°C 47% 5.0 mph WNW8.0 kmh WNW 6.0 mph9.7 kmh 30.03 in1016.9 mb 0.00 in0.0 mm 0.00 in0.0 mm 0.00 in0.0 mm
11:46 PM 32.1°F0.1°C 14.2°F-9.9°C 47% 1.0 mph NNW1.6 kmh NNW 3.0 mph4.8 kmh 30.03 in1016.9 mb 0.00 in0.0 mm 0.00 in0.0 mm 0.00 in0.0 mm
11:48 PM 32.1°F0.1°C 14.2°F-9.9°C 47% 5.0 mph WNW8.0 kmh WNW 9.0 mph14.5 kmh 30.03 in1016.9 mb 0.00 in0.0 mm 0.00 in0.0 mm 0.00 in0.0 mm
11:50 PM 32.1°F0.1°C 14.2°F-9.9°C 47% 6.0 mph WNW9.7 kmh WNW 6.0 mph9.7 kmh 30.03 in1016.9 mb 0.00 in0.0 mm 0.00 in0.0 mm 0.00 in0.0 mm
11:52 PM 32.1°F0.1°C 14.2°F-9.9°C 47% 3.0 mph WNW4.8 kmh WNW 3.0 mph4.8 kmh 30.03 in1016.9 mb 0.00 in0.0 mm 0.00 in0.0 mm 0.00 in0.0 mm
11:54 PM 32.1°F0.1°C 14.6°F-9.7°C 48% 3.0 mph WNW4.8 kmh WNW 3.0 mph4.8 kmh 30.03 in1016.9 mb 0.00 in0.0 mm 0.00 in0.0 mm 0.00 in0.0 mm
11:56 PM 32.1°F0.1°C 14.6°F-9.7°C 48% 4.0 mph NW6.4 kmh NW 6.0 mph9.7 kmh 30.03 in1016.9 mb 0.00 in0.0 mm 0.00 in0.0 mm 0.00 in0.0 mm
11:58 PM 32.0°F0.0°C 14.1°F-9.9°C 47% 3.0 mph NW4.8 kmh NW 5.0 mph8.0 kmh 30.03 in1016.9 mb 0.00 in0.0 mm 0.00 in0.0 mm 0.00 in0.0 mm